<?xml version="1.0" encoding="UTF-8" standalone="no" ?>
<gpx xmlns="http://www.topografix.com/GPX/1/1" xmlns:xsi="http://www.w3.org/2001/XMLSchema-instance" xsi:schemaLocation="http://www.topografix.com/GPX/1/1 http://www.topografix.com/GPX/1/1/gpx.xsd" version="1.1" creator="VisuGPX - https://www.visugpx.com">
  <metadata>
    <name>montferrat</name>
    <desc><![CDATA[pas de ballisage]]></desc>
  </metadata>
  <trk>
    <name><![CDATA[Afternoon Jan 7th_1]]></name>
    <extensions>
      <line xmlns="http://www.topografix.com/GPX/gpx_style/0/2">
        <color>0000FF</color>
        <width>4</width>
      </line>
    </extensions>
    <trkseg>
      <trkpt lat="43.61016" lon="6.48309">
        <ele>396.4</ele>
        <time>2024-01-07T11:28:34.000Z</time>
      </trkpt>
      <trkpt lat="43.61022" lon="6.48306">
        <ele>395.4</ele>
        <time>2024-01-07T11:28:55.000Z</time>
      </trkpt>
      <trkpt lat="43.61027" lon="6.48309">
        <ele>395.8</ele>
        <time>2024-01-07T11:29:05.000Z</time>
      </trkpt>
      <trkpt lat="43.61027" lon="6.48303">
        <ele>396.6</ele>
        <time>2024-01-07T11:29:19.000Z</time>
      </trkpt>
      <trkpt lat="43.61022" lon="6.48301">
        <ele>396.9</ele>
        <time>2024-01-07T11:29:24.000Z</time>
      </trkpt>
      <trkpt lat="43.61018" lon="6.48299">
        <ele>404.7</ele>
        <time>2024-01-07T11:29:58.000Z</time>
      </trkpt>
      <trkpt lat="43.61022" lon="6.48295">
        <ele>405.8</ele>
        <time>2024-01-07T11:30:04.000Z</time>
      </trkpt>
      <trkpt lat="43.61027" lon="6.48295">
        <ele>406.3</ele>
        <time>2024-01-07T11:30:11.000Z</time>
      </trkpt>
      <trkpt lat="43.61035" lon="6.483">
        <ele>410.7</ele>
        <time>2024-01-07T11:30:28.000Z</time>
      </trkpt>
      <trkpt lat="43.61039" lon="6.48296">
        <ele>411.9</ele>
        <time>2024-01-07T11:30:32.000Z</time>
      </trkpt>
      <trkpt lat="43.61035" lon="6.48293">
        <ele>414.7</ele>
        <time>2024-01-07T11:30:37.000Z</time>
      </trkpt>
      <trkpt lat="43.61032" lon="6.48288">
        <ele>417.4</ele>
        <time>2024-01-07T11:30:40.000Z</time>
      </trkpt>
      <trkpt lat="43.61032" lon="6.4828">
        <ele>420.6</ele>
        <time>2024-01-07T11:30:44.000Z</time>
      </trkpt>
      <trkpt lat="43.61034" lon="6.48274">
        <ele>423</ele>
        <time>2024-01-07T11:30:49.000Z</time>
      </trkpt>
      <trkpt lat="43.61035" lon="6.48267">
        <ele>426.1</ele>
        <time>2024-01-07T11:30:53.000Z</time>
      </trkpt>
      <trkpt lat="43.61035" lon="6.48259">
        <ele>428.6</ele>
        <time>2024-01-07T11:30:57.000Z</time>
      </trkpt>
      <trkpt lat="43.61035" lon="6.48252">
        <ele>430.2</ele>
        <time>2024-01-07T11:31:02.000Z</time>
      </trkpt>
      <trkpt lat="43.61046" lon="6.48237">
        <ele>437.3</ele>
        <time>2024-01-07T11:31:12.000Z</time>
      </trkpt>
      <trkpt lat="43.6105" lon="6.48233">
        <ele>442.5</ele>
        <time>2024-01-07T11:31:15.000Z</time>
      </trkpt>
      <trkpt lat="43.61054" lon="6.4823">
        <ele>446.2</ele>
        <time>2024-01-07T11:31:18.000Z</time>
      </trkpt>
      <trkpt lat="43.61058" lon="6.48226">
        <ele>448.3</ele>
        <time>2024-01-07T11:31:22.000Z</time>
      </trkpt>
      <trkpt lat="43.61064" lon="6.48225">
        <ele>451.5</ele>
        <time>2024-01-07T11:31:26.000Z</time>
      </trkpt>
      <trkpt lat="43.61069" lon="6.48226">
        <ele>456.3</ele>
        <time>2024-01-07T11:31:30.000Z</time>
      </trkpt>
      <trkpt lat="43.61074" lon="6.48226">
        <ele>460.5</ele>
        <time>2024-01-07T11:31:34.000Z</time>
      </trkpt>
      <trkpt lat="43.6108" lon="6.48225">
        <ele>460.8</ele>
        <time>2024-01-07T11:31:41.000Z</time>
      </trkpt>
      <trkpt lat="43.61084" lon="6.48221">
        <ele>460.8</ele>
        <time>2024-01-07T11:31:46.000Z</time>
      </trkpt>
      <trkpt lat="43.61088" lon="6.48218">
        <ele>460.6</ele>
        <time>2024-01-07T11:31:51.000Z</time>
      </trkpt>
      <trkpt lat="43.61092" lon="6.48214">
        <ele>461.5</ele>
        <time>2024-01-07T11:31:57.000Z</time>
      </trkpt>
      <trkpt lat="43.61094" lon="6.48207">
        <ele>462</ele>
        <time>2024-01-07T11:32:02.000Z</time>
      </trkpt>
      <trkpt lat="43.61099" lon="6.48204">
        <ele>463.4</ele>
        <time>2024-01-07T11:32:07.000Z</time>
      </trkpt>
      <trkpt lat="43.61102" lon="6.48198">
        <ele>465.3</ele>
        <time>2024-01-07T11:32:13.000Z</time>
      </trkpt>
      <trkpt lat="43.61106" lon="6.48194">
        <ele>466.4</ele>
        <time>2024-01-07T11:32:19.000Z</time>
      </trkpt>
      <trkpt lat="43.6111" lon="6.48192">
        <ele>467.6</ele>
        <time>2024-01-07T11:32:27.000Z</time>
      </trkpt>
      <trkpt lat="43.61115" lon="6.48191">
        <ele>468.5</ele>
        <time>2024-01-07T11:32:31.000Z</time>
      </trkpt>
      <trkpt lat="43.61119" lon="6.4819">
        <ele>469.3</ele>
        <time>2024-01-07T11:32:36.000Z</time>
      </trkpt>
      <trkpt lat="43.61125" lon="6.48192">
        <ele>470.2</ele>
        <time>2024-01-07T11:32:41.000Z</time>
      </trkpt>
      <trkpt lat="43.6113" lon="6.48194">
        <ele>471.1</ele>
        <time>2024-01-07T11:32:45.000Z</time>
      </trkpt>
      <trkpt lat="43.61135" lon="6.48194">
        <ele>471.9</ele>
        <time>2024-01-07T11:32:49.000Z</time>
      </trkpt>
      <trkpt lat="43.6114" lon="6.48195">
        <ele>472.9</ele>
        <time>2024-01-07T11:32:53.000Z</time>
      </trkpt>
      <trkpt lat="43.61145" lon="6.48195">
        <ele>473.7</ele>
        <time>2024-01-07T11:32:57.000Z</time>
      </trkpt>
      <trkpt lat="43.61163" lon="6.48193">
        <ele>475.3</ele>
        <time>2024-01-07T11:33:07.000Z</time>
      </trkpt>
      <trkpt lat="43.61168" lon="6.48194">
        <ele>475.9</ele>
        <time>2024-01-07T11:33:11.000Z</time>
      </trkpt>
      <trkpt lat="43.61172" lon="6.4819">
        <ele>476.2</ele>
        <time>2024-01-07T11:33:14.000Z</time>
      </trkpt>
      <trkpt lat="43.61175" lon="6.48185">
        <ele>476.6</ele>
        <time>2024-01-07T11:33:18.000Z</time>
      </trkpt>
      <trkpt lat="43.61179" lon="6.4818">
        <ele>476.8</ele>
        <time>2024-01-07T11:33:21.000Z</time>
      </trkpt>
      <trkpt lat="43.61183" lon="6.48176">
        <ele>477.4</ele>
        <time>2024-01-07T11:33:25.000Z</time>
      </trkpt>
      <trkpt lat="43.61188" lon="6.48174">
        <ele>477.6</ele>
        <time>2024-01-07T11:33:28.000Z</time>
      </trkpt>
      <trkpt lat="43.61192" lon="6.4817">
        <ele>477.9</ele>
        <time>2024-01-07T11:33:32.000Z</time>
      </trkpt>
      <trkpt lat="43.61195" lon="6.48165">
        <ele>478</ele>
        <time>2024-01-07T11:33:37.000Z</time>
      </trkpt>
      <trkpt lat="43.61199" lon="6.4816">
        <ele>478.5</ele>
        <time>2024-01-07T11:33:43.000Z</time>
      </trkpt>
      <trkpt lat="43.61203" lon="6.48157">
        <ele>478.7</ele>
        <time>2024-01-07T11:33:48.000Z</time>
      </trkpt>
      <trkpt lat="43.61206" lon="6.48151">
        <ele>478.9</ele>
        <time>2024-01-07T11:33:51.000Z</time>
      </trkpt>
      <trkpt lat="43.61205" lon="6.48127">
        <ele>479.2</ele>
        <time>2024-01-07T11:34:01.000Z</time>
      </trkpt>
      <trkpt lat="43.61211" lon="6.48129">
        <ele>479.4</ele>
        <time>2024-01-07T11:34:07.000Z</time>
      </trkpt>
      <trkpt lat="43.61216" lon="6.48127">
        <ele>479.5</ele>
        <time>2024-01-07T11:34:12.000Z</time>
      </trkpt>
      <trkpt lat="43.61219" lon="6.48121">
        <ele>479.3</ele>
        <time>2024-01-07T11:34:17.000Z</time>
      </trkpt>
      <trkpt lat="43.61219" lon="6.48114">
        <ele>479.3</ele>
        <time>2024-01-07T11:34:21.000Z</time>
      </trkpt>
      <trkpt lat="43.61224" lon="6.48111">
        <ele>479.4</ele>
        <time>2024-01-07T11:34:25.000Z</time>
      </trkpt>
      <trkpt lat="43.61237" lon="6.4812">
        <ele>479.5</ele>
        <time>2024-01-07T11:34:35.000Z</time>
      </trkpt>
      <trkpt lat="43.6124" lon="6.48112">
        <ele>479.6</ele>
        <time>2024-01-07T11:34:40.000Z</time>
      </trkpt>
      <trkpt lat="43.61245" lon="6.48115">
        <ele>480.8</ele>
        <time>2024-01-07T11:34:53.000Z</time>
      </trkpt>
      <trkpt lat="43.61257" lon="6.48142">
        <ele>481</ele>
        <time>2024-01-07T11:35:21.000Z</time>
      </trkpt>
      <trkpt lat="43.61261" lon="6.48147">
        <ele>480.9</ele>
        <time>2024-01-07T11:35:26.000Z</time>
      </trkpt>
      <trkpt lat="43.6126" lon="6.48153">
        <ele>480.9</ele>
        <time>2024-01-07T11:35:32.000Z</time>
      </trkpt>
      <trkpt lat="43.61256" lon="6.48152">
        <ele>480.8</ele>
        <time>2024-01-07T11:35:38.000Z</time>
      </trkpt>
      <trkpt lat="43.61252" lon="6.48156">
        <ele>481</ele>
        <time>2024-01-07T11:35:42.000Z</time>
      </trkpt>
      <trkpt lat="43.61248" lon="6.48153">
        <ele>481.1</ele>
        <time>2024-01-07T11:35:46.000Z</time>
      </trkpt>
      <trkpt lat="43.61248" lon="6.48146">
        <ele>481.2</ele>
        <time>2024-01-07T11:35:53.000Z</time>
      </trkpt>
      <trkpt lat="43.61252" lon="6.48144">
        <ele>481.1</ele>
        <time>2024-01-07T11:35:58.000Z</time>
      </trkpt>
      <trkpt lat="43.61248" lon="6.48142">
        <ele>481.2</ele>
        <time>2024-01-07T11:36:02.000Z</time>
      </trkpt>
      <trkpt lat="43.61254" lon="6.48138">
        <ele>481</ele>
        <time>2024-01-07T11:36:06.000Z</time>
      </trkpt>
      <trkpt lat="43.6126" lon="6.48135">
        <ele>480.4</ele>
        <time>2024-01-07T11:36:12.000Z</time>
      </trkpt>
      <trkpt lat="43.61265" lon="6.48134">
        <ele>480</ele>
        <time>2024-01-07T11:36:15.000Z</time>
      </trkpt>
      <trkpt lat="43.61268" lon="6.48139">
        <ele>479.9</ele>
        <time>2024-01-07T11:36:20.000Z</time>
      </trkpt>
      <trkpt lat="43.61272" lon="6.48145">
        <ele>479.5</ele>
        <time>2024-01-07T11:36:26.000Z</time>
      </trkpt>
      <trkpt lat="43.61274" lon="6.48151">
        <ele>479.6</ele>
        <time>2024-01-07T11:36:29.000Z</time>
      </trkpt>
      <trkpt lat="43.61278" lon="6.48155">
        <ele>479.4</ele>
        <time>2024-01-07T11:36:34.000Z</time>
      </trkpt>
      <trkpt lat="43.61278" lon="6.48162">
        <ele>480.1</ele>
        <time>2024-01-07T11:36:42.000Z</time>
      </trkpt>
      <trkpt lat="43.61283" lon="6.48165">
        <ele>479.7</ele>
        <time>2024-01-07T11:36:49.000Z</time>
      </trkpt>
      <trkpt lat="43.61286" lon="6.4816">
        <ele>482.3</ele>
        <time>2024-01-07T11:37:13.000Z</time>
      </trkpt>
      <trkpt lat="43.61284" lon="6.48167">
        <ele>483.2</ele>
        <time>2024-01-07T11:37:26.000Z</time>
      </trkpt>
      <trkpt lat="43.61282" lon="6.48174">
        <ele>483.3</ele>
        <time>2024-01-07T11:37:41.000Z</time>
      </trkpt>
      <trkpt lat="43.61281" lon="6.4818">
        <ele>487.5</ele>
        <time>2024-01-07T11:38:00.000Z</time>
      </trkpt>
      <trkpt lat="43.61279" lon="6.48186">
        <ele>487.6</ele>
        <time>2024-01-07T11:38:05.000Z</time>
      </trkpt>
      <trkpt lat="43.61274" lon="6.48182">
        <ele>485.4</ele>
        <time>2024-01-07T11:38:58.000Z</time>
      </trkpt>
      <trkpt lat="43.61271" lon="6.48178">
        <ele>484.9</ele>
        <time>2024-01-07T11:39:05.000Z</time>
      </trkpt>
      <trkpt lat="43.61275" lon="6.48174">
        <ele>483.8</ele>
        <time>2024-01-07T11:39:17.000Z</time>
      </trkpt>
      <trkpt lat="43.61277" lon="6.48168">
        <ele>483.6</ele>
        <time>2024-01-07T11:39:23.000Z</time>
      </trkpt>
      <trkpt lat="43.61281" lon="6.48166">
        <ele>483.1</ele>
        <time>2024-01-07T11:39:29.000Z</time>
      </trkpt>
      <trkpt lat="43.61309" lon="6.4815">
        <ele>482</ele>
        <time>2024-01-07T11:39:54.000Z</time>
      </trkpt>
      <trkpt lat="43.61319" lon="6.48146">
        <ele>481.4</ele>
        <time>2024-01-07T11:40:04.000Z</time>
      </trkpt>
      <trkpt lat="43.61324" lon="6.48149">
        <ele>481.5</ele>
        <time>2024-01-07T11:40:10.000Z</time>
      </trkpt>
      <trkpt lat="43.61337" lon="6.4814">
        <ele>480.2</ele>
        <time>2024-01-07T11:40:23.000Z</time>
      </trkpt>
      <trkpt lat="43.61342" lon="6.48142">
        <ele>479.3</ele>
        <time>2024-01-07T11:40:28.000Z</time>
      </trkpt>
      <trkpt lat="43.61346" lon="6.48145">
        <ele>478</ele>
        <time>2024-01-07T11:40:38.000Z</time>
      </trkpt>
      <trkpt lat="43.6135" lon="6.48149">
        <ele>475.8</ele>
        <time>2024-01-07T11:40:43.000Z</time>
      </trkpt>
      <trkpt lat="43.61355" lon="6.48155">
        <ele>474.5</ele>
        <time>2024-01-07T11:40:48.000Z</time>
      </trkpt>
      <trkpt lat="43.61359" lon="6.48153">
        <ele>473.8</ele>
        <time>2024-01-07T11:40:55.000Z</time>
      </trkpt>
      <trkpt lat="43.61366" lon="6.48147">
        <ele>473.7</ele>
        <time>2024-01-07T11:41:12.000Z</time>
      </trkpt>
      <trkpt lat="43.61371" lon="6.48142">
        <ele>474.2</ele>
        <time>2024-01-07T11:41:16.000Z</time>
      </trkpt>
      <trkpt lat="43.61375" lon="6.4814">
        <ele>474.3</ele>
        <time>2024-01-07T11:41:19.000Z</time>
      </trkpt>
      <trkpt lat="43.61381" lon="6.48139">
        <ele>475.3</ele>
        <time>2024-01-07T11:41:24.000Z</time>
      </trkpt>
      <trkpt lat="43.61385" lon="6.48137">
        <ele>476</ele>
        <time>2024-01-07T11:41:27.000Z</time>
      </trkpt>
      <trkpt lat="43.61391" lon="6.48135">
        <ele>476.6</ele>
        <time>2024-01-07T11:41:32.000Z</time>
      </trkpt>
      <trkpt lat="43.61397" lon="6.48134">
        <ele>477.2</ele>
        <time>2024-01-07T11:41:36.000Z</time>
      </trkpt>
      <trkpt lat="43.61401" lon="6.48132">
        <ele>477.5</ele>
        <time>2024-01-07T11:41:41.000Z</time>
      </trkpt>
      <trkpt lat="43.61407" lon="6.48135">
        <ele>477.3</ele>
        <time>2024-01-07T11:41:47.000Z</time>
      </trkpt>
      <trkpt lat="43.61412" lon="6.48139">
        <ele>477.4</ele>
        <time>2024-01-07T11:42:05.000Z</time>
      </trkpt>
      <trkpt lat="43.61416" lon="6.48138">
        <ele>477.7</ele>
        <time>2024-01-07T11:42:12.000Z</time>
      </trkpt>
      <trkpt lat="43.61422" lon="6.48136">
        <ele>478.2</ele>
        <time>2024-01-07T11:42:18.000Z</time>
      </trkpt>
      <trkpt lat="43.61428" lon="6.48137">
        <ele>478.5</ele>
        <time>2024-01-07T11:42:25.000Z</time>
      </trkpt>
      <trkpt lat="43.61432" lon="6.4814">
        <ele>478.9</ele>
        <time>2024-01-07T11:42:28.000Z</time>
      </trkpt>
      <trkpt lat="43.61437" lon="6.48141">
        <ele>479</ele>
        <time>2024-01-07T11:42:34.000Z</time>
      </trkpt>
      <trkpt lat="43.61442" lon="6.48139">
        <ele>479.7</ele>
        <time>2024-01-07T11:42:40.000Z</time>
      </trkpt>
      <trkpt lat="43.61446" lon="6.48142">
        <ele>480.6</ele>
        <time>2024-01-07T11:42:45.000Z</time>
      </trkpt>
      <trkpt lat="43.61451" lon="6.48141">
        <ele>481.2</ele>
        <time>2024-01-07T11:42:48.000Z</time>
      </trkpt>
      <trkpt lat="43.61457" lon="6.48137">
        <ele>482.2</ele>
        <time>2024-01-07T11:42:55.000Z</time>
      </trkpt>
      <trkpt lat="43.61461" lon="6.48134">
        <ele>482.6</ele>
        <time>2024-01-07T11:43:03.000Z</time>
      </trkpt>
      <trkpt lat="43.61466" lon="6.48134">
        <ele>482.9</ele>
        <time>2024-01-07T11:43:08.000Z</time>
      </trkpt>
      <trkpt lat="43.61471" lon="6.48133">
        <ele>483.6</ele>
        <time>2024-01-07T11:43:13.000Z</time>
      </trkpt>
      <trkpt lat="43.61476" lon="6.48134">
        <ele>484.3</ele>
        <time>2024-01-07T11:43:25.000Z</time>
      </trkpt>
      <trkpt lat="43.61487" lon="6.48131">
        <ele>486.2</ele>
        <time>2024-01-07T11:43:34.000Z</time>
      </trkpt>
      <trkpt lat="43.61491" lon="6.48128">
        <ele>486.9</ele>
        <time>2024-01-07T11:43:38.000Z</time>
      </trkpt>
      <trkpt lat="43.61496" lon="6.48126">
        <ele>488</ele>
        <time>2024-01-07T11:43:47.000Z</time>
      </trkpt>
      <trkpt lat="43.61501" lon="6.48126">
        <ele>488.5</ele>
        <time>2024-01-07T11:43:53.000Z</time>
      </trkpt>
      <trkpt lat="43.61506" lon="6.48127">
        <ele>488.8</ele>
        <time>2024-01-07T11:43:57.000Z</time>
      </trkpt>
      <trkpt lat="43.61511" lon="6.48125">
        <ele>489.6</ele>
        <time>2024-01-07T11:44:03.000Z</time>
      </trkpt>
      <trkpt lat="43.61516" lon="6.48125">
        <ele>490.3</ele>
        <time>2024-01-07T11:44:08.000Z</time>
      </trkpt>
      <trkpt lat="43.61521" lon="6.48125">
        <ele>491.3</ele>
        <time>2024-01-07T11:44:16.000Z</time>
      </trkpt>
      <trkpt lat="43.61526" lon="6.48127">
        <ele>492.9</ele>
        <time>2024-01-07T11:44:27.000Z</time>
      </trkpt>
      <trkpt lat="43.61531" lon="6.48122">
        <ele>493.4</ele>
        <time>2024-01-07T11:44:34.000Z</time>
      </trkpt>
      <trkpt lat="43.61535" lon="6.48118">
        <ele>493.2</ele>
        <time>2024-01-07T11:44:38.000Z</time>
      </trkpt>
      <trkpt lat="43.61538" lon="6.48113">
        <ele>493.7</ele>
        <time>2024-01-07T11:44:43.000Z</time>
      </trkpt>
      <trkpt lat="43.61543" lon="6.4811">
        <ele>494.4</ele>
        <time>2024-01-07T11:44:47.000Z</time>
      </trkpt>
      <trkpt lat="43.61547" lon="6.48109">
        <ele>494.7</ele>
        <time>2024-01-07T11:44:51.000Z</time>
      </trkpt>
      <trkpt lat="43.61552" lon="6.48112">
        <ele>494.8</ele>
        <time>2024-01-07T11:45:01.000Z</time>
      </trkpt>
      <trkpt lat="43.61558" lon="6.48113">
        <ele>495</ele>
        <time>2024-01-07T11:45:05.000Z</time>
      </trkpt>
      <trkpt lat="43.61564" lon="6.48111">
        <ele>495.3</ele>
        <time>2024-01-07T11:45:11.000Z</time>
      </trkpt>
      <trkpt lat="43.61573" lon="6.48104">
        <ele>496.2</ele>
        <time>2024-01-07T11:45:18.000Z</time>
      </trkpt>
      <trkpt lat="43.61582" lon="6.48097">
        <ele>496</ele>
        <time>2024-01-07T11:45:25.000Z</time>
      </trkpt>
      <trkpt lat="43.61587" lon="6.48093">
        <ele>496.2</ele>
        <time>2024-01-07T11:45:29.000Z</time>
      </trkpt>
      <trkpt lat="43.61591" lon="6.48095">
        <ele>496.1</ele>
        <time>2024-01-07T11:45:34.000Z</time>
      </trkpt>
      <trkpt lat="43.61595" lon="6.48091">
        <ele>496.1</ele>
        <time>2024-01-07T11:45:40.000Z</time>
      </trkpt>
      <trkpt lat="43.616" lon="6.48087">
        <ele>496.2</ele>
        <time>2024-01-07T11:45:46.000Z</time>
      </trkpt>
      <trkpt lat="43.61604" lon="6.48084">
        <ele>497.1</ele>
        <time>2024-01-07T11:45:52.000Z</time>
      </trkpt>
      <trkpt lat="43.6161" lon="6.4808">
        <ele>497.4</ele>
        <time>2024-01-07T11:45:58.000Z</time>
      </trkpt>
      <trkpt lat="43.61615" lon="6.48079">
        <ele>497.9</ele>
        <time>2024-01-07T11:46:04.000Z</time>
      </trkpt>
      <trkpt lat="43.6162" lon="6.4808">
        <ele>498.2</ele>
        <time>2024-01-07T11:46:09.000Z</time>
      </trkpt>
      <trkpt lat="43.6163" lon="6.48083">
        <ele>498.7</ele>
        <time>2024-01-07T11:46:19.000Z</time>
      </trkpt>
      <trkpt lat="43.61635" lon="6.48084">
        <ele>499.1</ele>
        <time>2024-01-07T11:46:25.000Z</time>
      </trkpt>
      <trkpt lat="43.6164" lon="6.48087">
        <ele>499.3</ele>
        <time>2024-01-07T11:46:29.000Z</time>
      </trkpt>
      <trkpt lat="43.61644" lon="6.48087">
        <ele>499.6</ele>
        <time>2024-01-07T11:46:36.000Z</time>
      </trkpt>
      <trkpt lat="43.61649" lon="6.48088">
        <ele>499.9</ele>
        <time>2024-01-07T11:46:42.000Z</time>
      </trkpt>
      <trkpt lat="43.61654" lon="6.4809">
        <ele>499.6</ele>
        <time>2024-01-07T11:46:49.000Z</time>
      </trkpt>
      <trkpt lat="43.61659" lon="6.48089">
        <ele>499.9</ele>
        <time>2024-01-07T11:46:53.000Z</time>
      </trkpt>
      <trkpt lat="43.61664" lon="6.48086">
        <ele>500.2</ele>
        <time>2024-01-07T11:46:58.000Z</time>
      </trkpt>
      <trkpt lat="43.61668" lon="6.48086">
        <ele>500.8</ele>
        <time>2024-01-07T11:47:07.000Z</time>
      </trkpt>
      <trkpt lat="43.61673" lon="6.48087">
        <ele>501</ele>
        <time>2024-01-07T11:47:14.000Z</time>
      </trkpt>
      <trkpt lat="43.61678" lon="6.48087">
        <ele>501.2</ele>
        <time>2024-01-07T11:47:18.000Z</time>
      </trkpt>
      <trkpt lat="43.61682" lon="6.48089">
        <ele>501.8</ele>
        <time>2024-01-07T11:47:23.000Z</time>
      </trkpt>
      <trkpt lat="43.6169" lon="6.48096">
        <ele>503.1</ele>
        <time>2024-01-07T11:47:30.000Z</time>
      </trkpt>
      <trkpt lat="43.61694" lon="6.481">
        <ele>503.8</ele>
        <time>2024-01-07T11:47:34.000Z</time>
      </trkpt>
      <trkpt lat="43.61699" lon="6.48097">
        <ele>504.8</ele>
        <time>2024-01-07T11:47:38.000Z</time>
      </trkpt>
      <trkpt lat="43.61704" lon="6.48095">
        <ele>505</ele>
        <time>2024-01-07T11:47:42.000Z</time>
      </trkpt>
      <trkpt lat="43.61709" lon="6.48096">
        <ele>505.3</ele>
        <time>2024-01-07T11:47:48.000Z</time>
      </trkpt>
      <trkpt lat="43.61714" lon="6.48097">
        <ele>505.6</ele>
        <time>2024-01-07T11:47:57.000Z</time>
      </trkpt>
      <trkpt lat="43.6172" lon="6.48099">
        <ele>505.7</ele>
        <time>2024-01-07T11:48:01.000Z</time>
      </trkpt>
      <trkpt lat="43.61724" lon="6.48103">
        <ele>506.1</ele>
        <time>2024-01-07T11:48:06.000Z</time>
      </trkpt>
      <trkpt lat="43.61728" lon="6.48105">
        <ele>506.5</ele>
        <time>2024-01-07T11:48:11.000Z</time>
      </trkpt>
      <trkpt lat="43.61733" lon="6.48106">
        <ele>506.9</ele>
        <time>2024-01-07T11:48:17.000Z</time>
      </trkpt>
      <trkpt lat="43.61738" lon="6.48108">
        <ele>506.7</ele>
        <time>2024-01-07T11:48:24.000Z</time>
      </trkpt>
      <trkpt lat="43.61743" lon="6.48106">
        <ele>506.9</ele>
        <time>2024-01-07T11:48:29.000Z</time>
      </trkpt>
      <trkpt lat="43.61748" lon="6.48106">
        <ele>507.3</ele>
        <time>2024-01-07T11:48:34.000Z</time>
      </trkpt>
      <trkpt lat="43.61753" lon="6.48107">
        <ele>508.4</ele>
        <time>2024-01-07T11:48:39.000Z</time>
      </trkpt>
      <trkpt lat="43.61759" lon="6.48107">
        <ele>509.2</ele>
        <time>2024-01-07T11:48:44.000Z</time>
      </trkpt>
      <trkpt lat="43.61764" lon="6.48106">
        <ele>510</ele>
        <time>2024-01-07T11:48:51.000Z</time>
      </trkpt>
      <trkpt lat="43.61768" lon="6.48104">
        <ele>510.3</ele>
        <time>2024-01-07T11:48:56.000Z</time>
      </trkpt>
      <trkpt lat="43.61772" lon="6.48108">
        <ele>511.5</ele>
        <time>2024-01-07T11:49:06.000Z</time>
      </trkpt>
      <trkpt lat="43.61776" lon="6.48113">
        <ele>512</ele>
        <time>2024-01-07T11:49:11.000Z</time>
      </trkpt>
      <trkpt lat="43.61781" lon="6.48115">
        <ele>512.8</ele>
        <time>2024-01-07T11:49:17.000Z</time>
      </trkpt>
      <trkpt lat="43.61785" lon="6.48113">
        <ele>513.3</ele>
        <time>2024-01-07T11:49:22.000Z</time>
      </trkpt>
      <trkpt lat="43.61791" lon="6.48113">
        <ele>513.6</ele>
        <time>2024-01-07T11:49:26.000Z</time>
      </trkpt>
      <trkpt lat="43.61801" lon="6.48115">
        <ele>513.9</ele>
        <time>2024-01-07T11:49:33.000Z</time>
      </trkpt>
      <trkpt lat="43.61806" lon="6.48116">
        <ele>514</ele>
        <time>2024-01-07T11:49:36.000Z</time>
      </trkpt>
      <trkpt lat="43.61811" lon="6.48115">
        <ele>514.3</ele>
        <time>2024-01-07T11:49:40.000Z</time>
      </trkpt>
      <trkpt lat="43.61816" lon="6.48117">
        <ele>515.2</ele>
        <time>2024-01-07T11:49:48.000Z</time>
      </trkpt>
      <trkpt lat="43.6182" lon="6.4812">
        <ele>515.9</ele>
        <time>2024-01-07T11:49:54.000Z</time>
      </trkpt>
      <trkpt lat="43.61824" lon="6.48124">
        <ele>516.4</ele>
        <time>2024-01-07T11:49:58.000Z</time>
      </trkpt>
      <trkpt lat="43.61827" lon="6.4813">
        <ele>516.5</ele>
        <time>2024-01-07T11:50:03.000Z</time>
      </trkpt>
      <trkpt lat="43.61832" lon="6.48131">
        <ele>517.1</ele>
        <time>2024-01-07T11:50:08.000Z</time>
      </trkpt>
      <trkpt lat="43.61836" lon="6.48133">
        <ele>517.2</ele>
        <time>2024-01-07T11:50:14.000Z</time>
      </trkpt>
      <trkpt lat="43.61839" lon="6.48138">
        <ele>518.3</ele>
        <time>2024-01-07T11:50:23.000Z</time>
      </trkpt>
      <trkpt lat="43.61841" lon="6.48144">
        <ele>519.9</ele>
        <time>2024-01-07T11:50:32.000Z</time>
      </trkpt>
      <trkpt lat="43.61845" lon="6.4815">
        <ele>520.6</ele>
        <time>2024-01-07T11:50:39.000Z</time>
      </trkpt>
      <trkpt lat="43.61848" lon="6.48154">
        <ele>520.4</ele>
        <time>2024-01-07T11:50:46.000Z</time>
      </trkpt>
      <trkpt lat="43.61853" lon="6.48158">
        <ele>521.3</ele>
        <time>2024-01-07T11:50:53.000Z</time>
      </trkpt>
      <trkpt lat="43.61857" lon="6.48161">
        <ele>522</ele>
        <time>2024-01-07T11:50:57.000Z</time>
      </trkpt>
      <trkpt lat="43.61867" lon="6.48166">
        <ele>523.2</ele>
        <time>2024-01-07T11:51:05.000Z</time>
      </trkpt>
      <trkpt lat="43.61872" lon="6.48168">
        <ele>523.9</ele>
        <time>2024-01-07T11:51:09.000Z</time>
      </trkpt>
      <trkpt lat="43.61876" lon="6.48171">
        <ele>525.1</ele>
        <time>2024-01-07T11:51:15.000Z</time>
      </trkpt>
      <trkpt lat="43.61879" lon="6.48175">
        <ele>525.9</ele>
        <time>2024-01-07T11:51:21.000Z</time>
      </trkpt>
      <trkpt lat="43.61882" lon="6.48181">
        <ele>527.4</ele>
        <time>2024-01-07T11:51:27.000Z</time>
      </trkpt>
      <trkpt lat="43.61886" lon="6.48184">
        <ele>527.9</ele>
        <time>2024-01-07T11:51:31.000Z</time>
      </trkpt>
      <trkpt lat="43.61891" lon="6.48187">
        <ele>528.3</ele>
        <time>2024-01-07T11:51:36.000Z</time>
      </trkpt>
      <trkpt lat="43.61895" lon="6.48191">
        <ele>528.7</ele>
        <time>2024-01-07T11:51:41.000Z</time>
      </trkpt>
      <trkpt lat="43.61899" lon="6.48198">
        <ele>529.2</ele>
        <time>2024-01-07T11:51:46.000Z</time>
      </trkpt>
      <trkpt lat="43.61902" lon="6.48203">
        <ele>529.7</ele>
        <time>2024-01-07T11:51:50.000Z</time>
      </trkpt>
      <trkpt lat="43.61906" lon="6.48207">
        <ele>529.6</ele>
        <time>2024-01-07T11:51:58.000Z</time>
      </trkpt>
      <trkpt lat="43.61908" lon="6.48214">
        <ele>530.4</ele>
        <time>2024-01-07T11:52:05.000Z</time>
      </trkpt>
      <trkpt lat="43.61921" lon="6.48225">
        <ele>530.9</ele>
        <time>2024-01-07T11:52:18.000Z</time>
      </trkpt>
      <trkpt lat="43.61926" lon="6.48228">
        <ele>531.4</ele>
        <time>2024-01-07T11:52:23.000Z</time>
      </trkpt>
      <trkpt lat="43.61934" lon="6.48236">
        <ele>531.8</ele>
        <time>2024-01-07T11:52:31.000Z</time>
      </trkpt>
      <trkpt lat="43.61935" lon="6.48243">
        <ele>531.3</ele>
        <time>2024-01-07T11:52:36.000Z</time>
      </trkpt>
      <trkpt lat="43.61948" lon="6.48254">
        <ele>531.3</ele>
        <time>2024-01-07T11:52:49.000Z</time>
      </trkpt>
      <trkpt lat="43.61951" lon="6.4826">
        <ele>531</ele>
        <time>2024-01-07T11:52:55.000Z</time>
      </trkpt>
      <trkpt lat="43.61955" lon="6.48265">
        <ele>531.1</ele>
        <time>2024-01-07T11:53:01.000Z</time>
      </trkpt>
      <trkpt lat="43.61959" lon="6.4827">
        <ele>531.4</ele>
        <time>2024-01-07T11:53:07.000Z</time>
      </trkpt>
      <trkpt lat="43.61963" lon="6.48274">
        <ele>531.8</ele>
        <time>2024-01-07T11:53:12.000Z</time>
      </trkpt>
      <trkpt lat="43.61959" lon="6.48277">
        <ele>540.5</ele>
        <time>2024-01-07T11:54:33.000Z</time>
      </trkpt>
      <trkpt lat="43.61955" lon="6.48282">
        <ele>543.9</ele>
        <time>2024-01-07T11:54:58.000Z</time>
      </trkpt>
      <trkpt lat="43.61951" lon="6.4828">
        <ele>544.9</ele>
        <time>2024-01-07T11:55:04.000Z</time>
      </trkpt>
      <trkpt lat="43.61947" lon="6.48274">
        <ele>544.3</ele>
        <time>2024-01-07T11:55:18.000Z</time>
      </trkpt>
      <trkpt lat="43.61944" lon="6.48268">
        <ele>544.7</ele>
        <time>2024-01-07T11:55:25.000Z</time>
      </trkpt>
      <trkpt lat="43.6194" lon="6.48268">
        <ele>545.3</ele>
        <time>2024-01-07T11:55:36.000Z</time>
      </trkpt>
      <trkpt lat="43.61935" lon="6.48269">
        <ele>546.2</ele>
        <time>2024-01-07T11:55:46.000Z</time>
      </trkpt>
      <trkpt lat="43.6193" lon="6.48271">
        <ele>546.4</ele>
        <time>2024-01-07T11:55:51.000Z</time>
      </trkpt>
      <trkpt lat="43.61926" lon="6.48271">
        <ele>546.7</ele>
        <time>2024-01-07T11:55:58.000Z</time>
      </trkpt>
      <trkpt lat="43.6192" lon="6.4827">
        <ele>547.6</ele>
        <time>2024-01-07T11:56:07.000Z</time>
      </trkpt>
      <trkpt lat="43.61916" lon="6.48269">
        <ele>548.1</ele>
        <time>2024-01-07T11:56:13.000Z</time>
      </trkpt>
      <trkpt lat="43.61911" lon="6.4827">
        <ele>549.5</ele>
        <time>2024-01-07T11:56:21.000Z</time>
      </trkpt>
      <trkpt lat="43.61907" lon="6.48273">
        <ele>550.4</ele>
        <time>2024-01-07T11:56:33.000Z</time>
      </trkpt>
      <trkpt lat="43.61901" lon="6.48272">
        <ele>550.8</ele>
        <time>2024-01-07T11:56:38.000Z</time>
      </trkpt>
      <trkpt lat="43.61892" lon="6.48278">
        <ele>550.8</ele>
        <time>2024-01-07T11:56:47.000Z</time>
      </trkpt>
      <trkpt lat="43.61889" lon="6.48272">
        <ele>550.9</ele>
        <time>2024-01-07T11:56:57.000Z</time>
      </trkpt>
      <trkpt lat="43.61885" lon="6.48272">
        <ele>552.4</ele>
        <time>2024-01-07T11:57:09.000Z</time>
      </trkpt>
      <trkpt lat="43.61882" lon="6.48267">
        <ele>552.9</ele>
        <time>2024-01-07T11:57:17.000Z</time>
      </trkpt>
      <trkpt lat="43.61877" lon="6.48265">
        <ele>552.7</ele>
        <time>2024-01-07T11:57:22.000Z</time>
      </trkpt>
      <trkpt lat="43.61873" lon="6.48263">
        <ele>553.3</ele>
        <time>2024-01-07T11:57:27.000Z</time>
      </trkpt>
      <trkpt lat="43.61854" lon="6.48272">
        <ele>554.8</ele>
        <time>2024-01-07T11:57:54.000Z</time>
      </trkpt>
      <trkpt lat="43.61849" lon="6.48273">
        <ele>555.8</ele>
        <time>2024-01-07T11:58:03.000Z</time>
      </trkpt>
      <trkpt lat="43.61844" lon="6.48275">
        <ele>557.1</ele>
        <time>2024-01-07T11:58:13.000Z</time>
      </trkpt>
      <trkpt lat="43.61839" lon="6.48274">
        <ele>558.5</ele>
        <time>2024-01-07T11:58:20.000Z</time>
      </trkpt>
      <trkpt lat="43.61835" lon="6.48276">
        <ele>560.2</ele>
        <time>2024-01-07T11:58:27.000Z</time>
      </trkpt>
      <trkpt lat="43.61831" lon="6.48279">
        <ele>561.3</ele>
        <time>2024-01-07T11:58:33.000Z</time>
      </trkpt>
      <trkpt lat="43.61826" lon="6.48279">
        <ele>562.8</ele>
        <time>2024-01-07T11:58:41.000Z</time>
      </trkpt>
      <trkpt lat="43.61821" lon="6.48278">
        <ele>563.9</ele>
        <time>2024-01-07T11:58:50.000Z</time>
      </trkpt>
      <trkpt lat="43.61816" lon="6.48276">
        <ele>565.3</ele>
        <time>2024-01-07T11:59:02.000Z</time>
      </trkpt>
      <trkpt lat="43.61808" lon="6.48294">
        <ele>565.6</ele>
        <time>2024-01-07T11:59:19.000Z</time>
      </trkpt>
      <trkpt lat="43.6181" lon="6.48299">
        <ele>566.5</ele>
        <time>2024-01-07T11:59:32.000Z</time>
      </trkpt>
      <trkpt lat="43.61806" lon="6.48292">
        <ele>567.4</ele>
        <time>2024-01-07T11:59:59.000Z</time>
      </trkpt>
      <trkpt lat="43.61803" lon="6.4828">
        <ele>571.3</ele>
        <time>2024-01-07T12:00:29.000Z</time>
      </trkpt>
      <trkpt lat="43.61798" lon="6.48284">
        <ele>573.7</ele>
        <time>2024-01-07T12:00:46.000Z</time>
      </trkpt>
      <trkpt lat="43.61798" lon="6.48291">
        <ele>573.6</ele>
        <time>2024-01-07T12:01:00.000Z</time>
      </trkpt>
      <trkpt lat="43.61799" lon="6.48285">
        <ele>576.4</ele>
        <time>2024-01-07T12:01:12.000Z</time>
      </trkpt>
      <trkpt lat="43.61795" lon="6.48279">
        <ele>577.5</ele>
        <time>2024-01-07T12:01:23.000Z</time>
      </trkpt>
      <trkpt lat="43.61791" lon="6.48277">
        <ele>578.8</ele>
        <time>2024-01-07T12:01:31.000Z</time>
      </trkpt>
      <trkpt lat="43.61787" lon="6.48277">
        <ele>580</ele>
        <time>2024-01-07T12:01:41.000Z</time>
      </trkpt>
      <trkpt lat="43.61783" lon="6.48282">
        <ele>579.5</ele>
        <time>2024-01-07T12:01:56.000Z</time>
      </trkpt>
      <trkpt lat="43.61772" lon="6.48296">
        <ele>577.7</ele>
        <time>2024-01-07T12:02:14.000Z</time>
      </trkpt>
      <trkpt lat="43.61768" lon="6.483">
        <ele>577.1</ele>
        <time>2024-01-07T12:02:21.000Z</time>
      </trkpt>
      <trkpt lat="43.61761" lon="6.48308">
        <ele>575.2</ele>
        <time>2024-01-07T12:02:38.000Z</time>
      </trkpt>
      <trkpt lat="43.6176" lon="6.48315">
        <ele>573.1</ele>
        <time>2024-01-07T12:02:47.000Z</time>
      </trkpt>
      <trkpt lat="43.61758" lon="6.48321">
        <ele>571.6</ele>
        <time>2024-01-07T12:02:55.000Z</time>
      </trkpt>
      <trkpt lat="43.61756" lon="6.48329">
        <ele>571.7</ele>
        <time>2024-01-07T12:03:04.000Z</time>
      </trkpt>
      <trkpt lat="43.61758" lon="6.48339">
        <ele>572.4</ele>
        <time>2024-01-07T12:03:20.000Z</time>
      </trkpt>
      <trkpt lat="43.61757" lon="6.48346">
        <ele>573</ele>
        <time>2024-01-07T12:03:26.000Z</time>
      </trkpt>
      <trkpt lat="43.61758" lon="6.48353">
        <ele>573.1</ele>
        <time>2024-01-07T12:03:33.000Z</time>
      </trkpt>
      <trkpt lat="43.61737" lon="6.48371">
        <ele>573.4</ele>
        <time>2024-01-07T12:04:21.000Z</time>
      </trkpt>
      <trkpt lat="43.61741" lon="6.48374">
        <ele>574</ele>
        <time>2024-01-07T12:04:30.000Z</time>
      </trkpt>
      <trkpt lat="43.61755" lon="6.48371">
        <ele>574.2</ele>
        <time>2024-01-07T12:04:49.000Z</time>
      </trkpt>
      <trkpt lat="43.61751" lon="6.48367">
        <ele>577.1</ele>
        <time>2024-01-07T12:05:19.000Z</time>
      </trkpt>
      <trkpt lat="43.61747" lon="6.48374">
        <ele>582.6</ele>
        <time>2024-01-07T12:05:35.000Z</time>
      </trkpt>
      <trkpt lat="43.61744" lon="6.4838">
        <ele>588.2</ele>
        <time>2024-01-07T12:06:03.000Z</time>
      </trkpt>
      <trkpt lat="43.61748" lon="6.48384">
        <ele>588.7</ele>
        <time>2024-01-07T12:06:18.000Z</time>
      </trkpt>
      <trkpt lat="43.61753" lon="6.48386">
        <ele>588.2</ele>
        <time>2024-01-07T12:06:25.000Z</time>
      </trkpt>
      <trkpt lat="43.61757" lon="6.4839">
        <ele>587.9</ele>
        <time>2024-01-07T12:06:38.000Z</time>
      </trkpt>
      <trkpt lat="43.61761" lon="6.48393">
        <ele>588.7</ele>
        <time>2024-01-07T12:06:45.000Z</time>
      </trkpt>
      <trkpt lat="43.61765" lon="6.48393">
        <ele>589.3</ele>
        <time>2024-01-07T12:06:52.000Z</time>
      </trkpt>
      <trkpt lat="43.61775" lon="6.48386">
        <ele>590.7</ele>
        <time>2024-01-07T12:07:04.000Z</time>
      </trkpt>
      <trkpt lat="43.61784" lon="6.48378">
        <ele>593.5</ele>
        <time>2024-01-07T12:07:25.000Z</time>
      </trkpt>
      <trkpt lat="43.61786" lon="6.48383">
        <ele>596.3</ele>
        <time>2024-01-07T12:07:34.000Z</time>
      </trkpt>
      <trkpt lat="43.6179" lon="6.48386">
        <ele>595.4</ele>
        <time>2024-01-07T12:07:55.000Z</time>
      </trkpt>
      <trkpt lat="43.61795" lon="6.48384">
        <ele>594.1</ele>
        <time>2024-01-07T12:08:16.000Z</time>
      </trkpt>
      <trkpt lat="43.61806" lon="6.48379">
        <ele>595.5</ele>
        <time>2024-01-07T12:08:33.000Z</time>
      </trkpt>
      <trkpt lat="43.61795" lon="6.48376">
        <ele>595.4</ele>
        <time>2024-01-07T12:08:45.000Z</time>
      </trkpt>
      <trkpt lat="43.61795" lon="6.48383">
        <ele>596.3</ele>
        <time>2024-01-07T12:08:52.000Z</time>
      </trkpt>
      <trkpt lat="43.61799" lon="6.48387">
        <ele>596.8</ele>
        <time>2024-01-07T12:09:00.000Z</time>
      </trkpt>
      <trkpt lat="43.61804" lon="6.48386">
        <ele>598.9</ele>
        <time>2024-01-07T12:09:15.000Z</time>
      </trkpt>
      <trkpt lat="43.61809" lon="6.48387">
        <ele>599.2</ele>
        <time>2024-01-07T12:09:24.000Z</time>
      </trkpt>
      <trkpt lat="43.6181" lon="6.48393">
        <ele>597.7</ele>
        <time>2024-01-07T12:09:36.000Z</time>
      </trkpt>
      <trkpt lat="43.6181" lon="6.48399">
        <ele>598.4</ele>
        <time>2024-01-07T12:09:44.000Z</time>
      </trkpt>
      <trkpt lat="43.61815" lon="6.48401">
        <ele>597.4</ele>
        <time>2024-01-07T12:09:56.000Z</time>
      </trkpt>
      <trkpt lat="43.61821" lon="6.48403">
        <ele>597.7</ele>
        <time>2024-01-07T12:10:09.000Z</time>
      </trkpt>
      <trkpt lat="43.61827" lon="6.48397">
        <ele>591.9</ele>
        <time>2024-01-07T12:10:21.000Z</time>
      </trkpt>
      <trkpt lat="43.61831" lon="6.48439">
        <ele>588.3</ele>
        <time>2024-01-07T12:11:04.000Z</time>
      </trkpt>
      <trkpt lat="43.61833" lon="6.48444">
        <ele>589.3</ele>
        <time>2024-01-07T12:11:16.000Z</time>
      </trkpt>
      <trkpt lat="43.61834" lon="6.48451">
        <ele>590.1</ele>
        <time>2024-01-07T12:11:26.000Z</time>
      </trkpt>
      <trkpt lat="43.61836" lon="6.48445">
        <ele>591.7</ele>
        <time>2024-01-07T12:11:37.000Z</time>
      </trkpt>
      <trkpt lat="43.61834" lon="6.48452">
        <ele>593.9</ele>
        <time>2024-01-07T12:11:49.000Z</time>
      </trkpt>
      <trkpt lat="43.61837" lon="6.48458">
        <ele>596</ele>
        <time>2024-01-07T12:11:59.000Z</time>
      </trkpt>
      <trkpt lat="43.61848" lon="6.48464">
        <ele>596.1</ele>
        <time>2024-01-07T12:12:26.000Z</time>
      </trkpt>
      <trkpt lat="43.61843" lon="6.48462">
        <ele>597.5</ele>
        <time>2024-01-07T12:12:44.000Z</time>
      </trkpt>
      <trkpt lat="43.61833" lon="6.48461">
        <ele>601.5</ele>
        <time>2024-01-07T12:13:07.000Z</time>
      </trkpt>
      <trkpt lat="43.61837" lon="6.48462">
        <ele>609.8</ele>
        <time>2024-01-07T12:13:49.000Z</time>
      </trkpt>
      <trkpt lat="43.61833" lon="6.48464">
        <ele>616.5</ele>
        <time>2024-01-07T12:14:23.000Z</time>
      </trkpt>
      <trkpt lat="43.61831" lon="6.48449">
        <ele>634</ele>
        <time>2024-01-07T12:16:01.000Z</time>
      </trkpt>
      <trkpt lat="43.61833" lon="6.48443">
        <ele>634</ele>
        <time>2024-01-07T12:16:15.000Z</time>
      </trkpt>
      <trkpt lat="43.61834" lon="6.48436">
        <ele>634.4</ele>
        <time>2024-01-07T12:16:23.000Z</time>
      </trkpt>
      <trkpt lat="43.61834" lon="6.4843">
        <ele>637.4</ele>
        <time>2024-01-07T12:16:38.000Z</time>
      </trkpt>
      <trkpt lat="43.61838" lon="6.48426">
        <ele>639.6</ele>
        <time>2024-01-07T12:16:56.000Z</time>
      </trkpt>
      <trkpt lat="43.61842" lon="6.48429">
        <ele>639.5</ele>
        <time>2024-01-07T12:17:08.000Z</time>
      </trkpt>
      <trkpt lat="43.61845" lon="6.48435">
        <ele>638.6</ele>
        <time>2024-01-07T12:17:15.000Z</time>
      </trkpt>
      <trkpt lat="43.61848" lon="6.4844">
        <ele>638.5</ele>
        <time>2024-01-07T12:17:22.000Z</time>
      </trkpt>
      <trkpt lat="43.61852" lon="6.48439">
        <ele>639.4</ele>
        <time>2024-01-07T12:17:45.000Z</time>
      </trkpt>
      <trkpt lat="43.61857" lon="6.48439">
        <ele>640.2</ele>
        <time>2024-01-07T12:18:05.000Z</time>
      </trkpt>
      <trkpt lat="43.6186" lon="6.48445">
        <ele>641.2</ele>
        <time>2024-01-07T12:18:14.000Z</time>
      </trkpt>
      <trkpt lat="43.61864" lon="6.48449">
        <ele>642.9</ele>
        <time>2024-01-07T12:18:23.000Z</time>
      </trkpt>
      <trkpt lat="43.61864" lon="6.48455">
        <ele>645.4</ele>
        <time>2024-01-07T12:18:32.000Z</time>
      </trkpt>
      <trkpt lat="43.61868" lon="6.48451">
        <ele>646.6</ele>
        <time>2024-01-07T12:18:43.000Z</time>
      </trkpt>
      <trkpt lat="43.61867" lon="6.48445">
        <ele>647.4</ele>
        <time>2024-01-07T12:18:52.000Z</time>
      </trkpt>
      <trkpt lat="43.6187" lon="6.48434">
        <ele>650.5</ele>
        <time>2024-01-07T12:19:06.000Z</time>
      </trkpt>
      <trkpt lat="43.61873" lon="6.48428">
        <ele>651.1</ele>
        <time>2024-01-07T12:19:15.000Z</time>
      </trkpt>
      <trkpt lat="43.61876" lon="6.48433">
        <ele>649.7</ele>
        <time>2024-01-07T12:19:28.000Z</time>
      </trkpt>
      <trkpt lat="43.61874" lon="6.4844">
        <ele>649.5</ele>
        <time>2024-01-07T12:19:36.000Z</time>
      </trkpt>
      <trkpt lat="43.61877" lon="6.48444">
        <ele>650.4</ele>
        <time>2024-01-07T12:19:44.000Z</time>
      </trkpt>
      <trkpt lat="43.61875" lon="6.48454">
        <ele>657</ele>
        <time>2024-01-07T12:21:00.000Z</time>
      </trkpt>
      <trkpt lat="43.61872" lon="6.4846">
        <ele>660.8</ele>
        <time>2024-01-07T12:21:15.000Z</time>
      </trkpt>
      <trkpt lat="43.61867" lon="6.48459">
        <ele>670.9</ele>
        <time>2024-01-07T12:23:50.000Z</time>
      </trkpt>
      <trkpt lat="43.61871" lon="6.48463">
        <ele>670.6</ele>
        <time>2024-01-07T12:24:01.000Z</time>
      </trkpt>
      <trkpt lat="43.61867" lon="6.48461">
        <ele>670.8</ele>
        <time>2024-01-07T12:24:07.000Z</time>
      </trkpt>
      <trkpt lat="43.61864" lon="6.48466">
        <ele>670.9</ele>
        <time>2024-01-07T12:24:14.000Z</time>
      </trkpt>
      <trkpt lat="43.61856" lon="6.48458">
        <ele>670.7</ele>
        <time>2024-01-07T12:24:26.000Z</time>
      </trkpt>
      <trkpt lat="43.61861" lon="6.48457">
        <ele>669.8</ele>
        <time>2024-01-07T12:24:33.000Z</time>
      </trkpt>
      <trkpt lat="43.61868" lon="6.48462">
        <ele>670.2</ele>
        <time>2024-01-07T12:24:44.000Z</time>
      </trkpt>
      <trkpt lat="43.61872" lon="6.48465">
        <ele>670.2</ele>
        <time>2024-01-07T12:24:50.000Z</time>
      </trkpt>
      <trkpt lat="43.61871" lon="6.48473">
        <ele>670.5</ele>
        <time>2024-01-07T12:25:41.000Z</time>
      </trkpt>
      <trkpt lat="43.61873" lon="6.48467">
        <ele>670.6</ele>
        <time>2024-01-07T12:25:55.000Z</time>
      </trkpt>
      <trkpt lat="43.61869" lon="6.48465">
        <ele>670.7</ele>
        <time>2024-01-07T12:26:20.000Z</time>
      </trkpt>
      <trkpt lat="43.61873" lon="6.48465">
        <ele>670.6</ele>
        <time>2024-01-07T12:26:33.000Z</time>
      </trkpt>
      <trkpt lat="43.6188" lon="6.4846">
        <ele>670.9</ele>
        <time>2024-01-07T12:26:49.000Z</time>
      </trkpt>
      <trkpt lat="43.61869" lon="6.48461">
        <ele>670.7</ele>
        <time>2024-01-07T12:27:12.000Z</time>
      </trkpt>
      <trkpt lat="43.6187" lon="6.48456">
        <ele>670.7</ele>
        <time>2024-01-07T12:27:22.000Z</time>
      </trkpt>
      <trkpt lat="43.61875" lon="6.48449">
        <ele>669.1</ele>
        <time>2024-01-07T12:27:41.000Z</time>
      </trkpt>
      <trkpt lat="43.61886" lon="6.48448">
        <ele>667.7</ele>
        <time>2024-01-07T12:27:55.000Z</time>
      </trkpt>
      <trkpt lat="43.6189" lon="6.48452">
        <ele>667.5</ele>
        <time>2024-01-07T12:28:00.000Z</time>
      </trkpt>
      <trkpt lat="43.61885" lon="6.48451">
        <ele>666.5</ele>
        <time>2024-01-07T12:28:19.000Z</time>
      </trkpt>
      <trkpt lat="43.61886" lon="6.48463">
        <ele>666.3</ele>
        <time>2024-01-07T12:28:54.000Z</time>
      </trkpt>
      <trkpt lat="43.61888" lon="6.48455">
        <ele>662.1</ele>
        <time>2024-01-07T12:29:21.000Z</time>
      </trkpt>
      <trkpt lat="43.61885" lon="6.48459">
        <ele>661.2</ele>
        <time>2024-01-07T12:29:39.000Z</time>
      </trkpt>
      <trkpt lat="43.61878" lon="6.48461">
        <ele>661.9</ele>
        <time>2024-01-07T12:30:36.000Z</time>
      </trkpt>
      <trkpt lat="43.61893" lon="6.48459">
        <ele>663.5</ele>
        <time>2024-01-07T12:31:53.000Z</time>
      </trkpt>
      <trkpt lat="43.61883" lon="6.48454">
        <ele>659.6</ele>
        <time>2024-01-07T12:32:47.000Z</time>
      </trkpt>
      <trkpt lat="43.61879" lon="6.48456">
        <ele>659.3</ele>
        <time>2024-01-07T12:33:17.000Z</time>
      </trkpt>
      <trkpt lat="43.61874" lon="6.48454">
        <ele>661.1</ele>
        <time>2024-01-07T12:33:56.000Z</time>
      </trkpt>
      <trkpt lat="43.61873" lon="6.48461">
        <ele>666.7</ele>
        <time>2024-01-07T12:34:47.000Z</time>
      </trkpt>
      <trkpt lat="43.61869" lon="6.48465">
        <ele>669.8</ele>
        <time>2024-01-07T12:35:18.000Z</time>
      </trkpt>
      <trkpt lat="43.61873" lon="6.48459">
        <ele>673.1</ele>
        <time>2024-01-07T12:36:14.000Z</time>
      </trkpt>
      <trkpt lat="43.61873" lon="6.48459">
        <ele>673.1</ele>
        <time>2024-01-07T12:36:14.001Z</time>
      </trkpt>
      <trkpt lat="43.61873" lon="6.48459">
        <ele>673.1</ele>
        <time>2024-01-07T12:36:14.000Z</time>
      </trkpt>
      <trkpt lat="43.61869" lon="6.48465">
        <ele>669.8</ele>
        <time>2024-01-07T12:35:18.000Z</time>
      </trkpt>
      <trkpt lat="43.61873" lon="6.48461">
        <ele>666.7</ele>
        <time>2024-01-07T12:34:47.000Z</time>
      </trkpt>
      <trkpt lat="43.61874" lon="6.48454">
        <ele>661.1</ele>
        <time>2024-01-07T12:33:56.000Z</time>
      </trkpt>
      <trkpt lat="43.61879" lon="6.48456">
        <ele>659.3</ele>
        <time>2024-01-07T12:33:17.000Z</time>
      </trkpt>
      <trkpt lat="43.61883" lon="6.48454">
        <ele>659.6</ele>
        <time>2024-01-07T12:32:47.000Z</time>
      </trkpt>
      <trkpt lat="43.61893" lon="6.48459">
        <ele>663.5</ele>
        <time>2024-01-07T12:31:53.000Z</time>
      </trkpt>
      <trkpt lat="43.61878" lon="6.48461">
        <ele>661.9</ele>
        <time>2024-01-07T12:30:36.000Z</time>
      </trkpt>
      <trkpt lat="43.61885" lon="6.48459">
        <ele>661.2</ele>
        <time>2024-01-07T12:29:39.000Z</time>
      </trkpt>
      <trkpt lat="43.61888" lon="6.48455">
        <ele>662.1</ele>
        <time>2024-01-07T12:29:21.000Z</time>
      </trkpt>
      <trkpt lat="43.61886" lon="6.48463">
        <ele>666.3</ele>
        <time>2024-01-07T12:28:54.000Z</time>
      </trkpt>
      <trkpt lat="43.61885" lon="6.48451">
        <ele>666.5</ele>
        <time>2024-01-07T12:28:19.000Z</time>
      </trkpt>
      <trkpt lat="43.6189" lon="6.48452">
        <ele>667.5</ele>
        <time>2024-01-07T12:28:00.000Z</time>
      </trkpt>
      <trkpt lat="43.61886" lon="6.48448">
        <ele>667.7</ele>
        <time>2024-01-07T12:27:55.000Z</time>
      </trkpt>
      <trkpt lat="43.61875" lon="6.48449">
        <ele>669.1</ele>
        <time>2024-01-07T12:27:41.000Z</time>
      </trkpt>
      <trkpt lat="43.6187" lon="6.48456">
        <ele>670.7</ele>
        <time>2024-01-07T12:27:22.000Z</time>
      </trkpt>
      <trkpt lat="43.61869" lon="6.48461">
        <ele>670.7</ele>
        <time>2024-01-07T12:27:12.000Z</time>
      </trkpt>
      <trkpt lat="43.6188" lon="6.4846">
        <ele>670.9</ele>
        <time>2024-01-07T12:26:49.000Z</time>
      </trkpt>
      <trkpt lat="43.61873" lon="6.48465">
        <ele>670.6</ele>
        <time>2024-01-07T12:26:33.000Z</time>
      </trkpt>
      <trkpt lat="43.61869" lon="6.48465">
        <ele>670.7</ele>
        <time>2024-01-07T12:26:20.000Z</time>
      </trkpt>
      <trkpt lat="43.61873" lon="6.48467">
        <ele>670.6</ele>
        <time>2024-01-07T12:25:55.000Z</time>
      </trkpt>
      <trkpt lat="43.61871" lon="6.48473">
        <ele>670.5</ele>
        <time>2024-01-07T12:25:41.000Z</time>
      </trkpt>
      <trkpt lat="43.61872" lon="6.48465">
        <ele>670.2</ele>
        <time>2024-01-07T12:24:50.000Z</time>
      </trkpt>
      <trkpt lat="43.61868" lon="6.48462">
        <ele>670.2</ele>
        <time>2024-01-07T12:24:44.000Z</time>
      </trkpt>
      <trkpt lat="43.61861" lon="6.48457">
        <ele>669.8</ele>
        <time>2024-01-07T12:24:33.000Z</time>
      </trkpt>
      <trkpt lat="43.61856" lon="6.48458">
        <ele>670.7</ele>
        <time>2024-01-07T12:24:26.000Z</time>
      </trkpt>
      <trkpt lat="43.61864" lon="6.48466">
        <ele>670.9</ele>
        <time>2024-01-07T12:24:14.000Z</time>
      </trkpt>
      <trkpt lat="43.61867" lon="6.48461">
        <ele>670.8</ele>
        <time>2024-01-07T12:24:07.000Z</time>
      </trkpt>
      <trkpt lat="43.61871" lon="6.48463">
        <ele>670.6</ele>
        <time>2024-01-07T12:24:01.000Z</time>
      </trkpt>
      <trkpt lat="43.61867" lon="6.48459">
        <ele>670.9</ele>
        <time>2024-01-07T12:23:50.000Z</time>
      </trkpt>
      <trkpt lat="43.61872" lon="6.4846">
        <ele>660.8</ele>
        <time>2024-01-07T12:21:15.000Z</time>
      </trkpt>
      <trkpt lat="43.61875" lon="6.48454">
        <ele>657</ele>
        <time>2024-01-07T12:21:00.000Z</time>
      </trkpt>
      <trkpt lat="43.61877" lon="6.48444">
        <ele>650.4</ele>
        <time>2024-01-07T12:19:44.000Z</time>
      </trkpt>
      <trkpt lat="43.61874" lon="6.4844">
        <ele>649.5</ele>
        <time>2024-01-07T12:19:36.000Z</time>
      </trkpt>
      <trkpt lat="43.61876" lon="6.48433">
        <ele>649.7</ele>
        <time>2024-01-07T12:19:28.000Z</time>
      </trkpt>
      <trkpt lat="43.61873" lon="6.48428">
        <ele>651.1</ele>
        <time>2024-01-07T12:19:15.000Z</time>
      </trkpt>
      <trkpt lat="43.6187" lon="6.48434">
        <ele>650.5</ele>
        <time>2024-01-07T12:19:06.000Z</time>
      </trkpt>
      <trkpt lat="43.61867" lon="6.48445">
        <ele>647.4</ele>
        <time>2024-01-07T12:18:52.000Z</time>
      </trkpt>
      <trkpt lat="43.61868" lon="6.48451">
        <ele>646.6</ele>
        <time>2024-01-07T12:18:43.000Z</time>
      </trkpt>
      <trkpt lat="43.61864" lon="6.48455">
        <ele>645.4</ele>
        <time>2024-01-07T12:18:32.000Z</time>
      </trkpt>
      <trkpt lat="43.61864" lon="6.48449">
        <ele>642.9</ele>
        <time>2024-01-07T12:18:23.000Z</time>
      </trkpt>
      <trkpt lat="43.6186" lon="6.48445">
        <ele>641.2</ele>
        <time>2024-01-07T12:18:14.000Z</time>
      </trkpt>
      <trkpt lat="43.61857" lon="6.48439">
        <ele>640.2</ele>
        <time>2024-01-07T12:18:05.000Z</time>
      </trkpt>
      <trkpt lat="43.61852" lon="6.48439">
        <ele>639.4</ele>
        <time>2024-01-07T12:17:45.000Z</time>
      </trkpt>
      <trkpt lat="43.61848" lon="6.4844">
        <ele>638.5</ele>
        <time>2024-01-07T12:17:22.000Z</time>
      </trkpt>
      <trkpt lat="43.61845" lon="6.48435">
        <ele>638.6</ele>
        <time>2024-01-07T12:17:15.000Z</time>
      </trkpt>
      <trkpt lat="43.61842" lon="6.48429">
        <ele>639.5</ele>
        <time>2024-01-07T12:17:08.000Z</time>
      </trkpt>
      <trkpt lat="43.61838" lon="6.48426">
        <ele>639.6</ele>
        <time>2024-01-07T12:16:56.000Z</time>
      </trkpt>
      <trkpt lat="43.61834" lon="6.4843">
        <ele>637.4</ele>
        <time>2024-01-07T12:16:38.000Z</time>
      </trkpt>
      <trkpt lat="43.61834" lon="6.48436">
        <ele>634.4</ele>
        <time>2024-01-07T12:16:23.000Z</time>
      </trkpt>
      <trkpt lat="43.61833" lon="6.48443">
        <ele>634</ele>
        <time>2024-01-07T12:16:15.000Z</time>
      </trkpt>
      <trkpt lat="43.61831" lon="6.48449">
        <ele>634</ele>
        <time>2024-01-07T12:16:01.000Z</time>
      </trkpt>
      <trkpt lat="43.61833" lon="6.48464">
        <ele>616.5</ele>
        <time>2024-01-07T12:14:23.000Z</time>
      </trkpt>
      <trkpt lat="43.61837" lon="6.48462">
        <ele>609.8</ele>
        <time>2024-01-07T12:13:49.000Z</time>
      </trkpt>
      <trkpt lat="43.61833" lon="6.48461">
        <ele>601.5</ele>
        <time>2024-01-07T12:13:07.000Z</time>
      </trkpt>
      <trkpt lat="43.61843" lon="6.48462">
        <ele>597.5</ele>
        <time>2024-01-07T12:12:44.000Z</time>
      </trkpt>
      <trkpt lat="43.61848" lon="6.48464">
        <ele>596.1</ele>
        <time>2024-01-07T12:12:26.000Z</time>
      </trkpt>
      <trkpt lat="43.61837" lon="6.48458">
        <ele>596</ele>
        <time>2024-01-07T12:11:59.000Z</time>
      </trkpt>
      <trkpt lat="43.61834" lon="6.48452">
        <ele>593.9</ele>
        <time>2024-01-07T12:11:49.000Z</time>
      </trkpt>
      <trkpt lat="43.61836" lon="6.48445">
        <ele>591.7</ele>
        <time>2024-01-07T12:11:37.000Z</time>
      </trkpt>
      <trkpt lat="43.61834" lon="6.48451">
        <ele>590.1</ele>
        <time>2024-01-07T12:11:26.000Z</time>
      </trkpt>
      <trkpt lat="43.61833" lon="6.48444">
        <ele>589.3</ele>
        <time>2024-01-07T12:11:16.000Z</time>
      </trkpt>
      <trkpt lat="43.61831" lon="6.48439">
        <ele>588.3</ele>
        <time>2024-01-07T12:11:04.000Z</time>
      </trkpt>
      <trkpt lat="43.61827" lon="6.48397">
        <ele>591.9</ele>
        <time>2024-01-07T12:10:21.000Z</time>
      </trkpt>
      <trkpt lat="43.61821" lon="6.48403">
        <ele>597.7</ele>
        <time>2024-01-07T12:10:09.000Z</time>
      </trkpt>
      <trkpt lat="43.61815" lon="6.48401">
        <ele>597.4</ele>
        <time>2024-01-07T12:09:56.000Z</time>
      </trkpt>
      <trkpt lat="43.6181" lon="6.48399">
        <ele>598.4</ele>
        <time>2024-01-07T12:09:44.000Z</time>
      </trkpt>
      <trkpt lat="43.6181" lon="6.48393">
        <ele>597.7</ele>
        <time>2024-01-07T12:09:36.000Z</time>
      </trkpt>
      <trkpt lat="43.61809" lon="6.48387">
        <ele>599.2</ele>
        <time>2024-01-07T12:09:24.000Z</time>
      </trkpt>
      <trkpt lat="43.61804" lon="6.48386">
        <ele>598.9</ele>
        <time>2024-01-07T12:09:15.000Z</time>
      </trkpt>
      <trkpt lat="43.61799" lon="6.48387">
        <ele>596.8</ele>
        <time>2024-01-07T12:09:00.000Z</time>
      </trkpt>
      <trkpt lat="43.61795" lon="6.48383">
        <ele>596.3</ele>
        <time>2024-01-07T12:08:52.000Z</time>
      </trkpt>
      <trkpt lat="43.61795" lon="6.48376">
        <ele>595.4</ele>
        <time>2024-01-07T12:08:45.000Z</time>
      </trkpt>
      <trkpt lat="43.61806" lon="6.48379">
        <ele>595.5</ele>
        <time>2024-01-07T12:08:33.000Z</time>
      </trkpt>
      <trkpt lat="43.61795" lon="6.48384">
        <ele>594.1</ele>
        <time>2024-01-07T12:08:16.000Z</time>
      </trkpt>
      <trkpt lat="43.6179" lon="6.48386">
        <ele>595.4</ele>
        <time>2024-01-07T12:07:55.000Z</time>
      </trkpt>
      <trkpt lat="43.61786" lon="6.48383">
        <ele>596.3</ele>
        <time>2024-01-07T12:07:34.000Z</time>
      </trkpt>
      <trkpt lat="43.61784" lon="6.48378">
        <ele>593.5</ele>
        <time>2024-01-07T12:07:25.000Z</time>
      </trkpt>
      <trkpt lat="43.61775" lon="6.48386">
        <ele>590.7</ele>
        <time>2024-01-07T12:07:04.000Z</time>
      </trkpt>
      <trkpt lat="43.61765" lon="6.48393">
        <ele>589.3</ele>
        <time>2024-01-07T12:06:52.000Z</time>
      </trkpt>
      <trkpt lat="43.61761" lon="6.48393">
        <ele>588.7</ele>
        <time>2024-01-07T12:06:45.000Z</time>
      </trkpt>
      <trkpt lat="43.61757" lon="6.4839">
        <ele>587.9</ele>
        <time>2024-01-07T12:06:38.000Z</time>
      </trkpt>
      <trkpt lat="43.61753" lon="6.48386">
        <ele>588.2</ele>
        <time>2024-01-07T12:06:25.000Z</time>
      </trkpt>
      <trkpt lat="43.61748" lon="6.48384">
        <ele>588.7</ele>
        <time>2024-01-07T12:06:18.000Z</time>
      </trkpt>
      <trkpt lat="43.61744" lon="6.4838">
        <ele>588.2</ele>
        <time>2024-01-07T12:06:03.000Z</time>
      </trkpt>
      <trkpt lat="43.61747" lon="6.48374">
        <ele>582.6</ele>
        <time>2024-01-07T12:05:35.000Z</time>
      </trkpt>
      <trkpt lat="43.61751" lon="6.48367">
        <ele>577.1</ele>
        <time>2024-01-07T12:05:19.000Z</time>
      </trkpt>
      <trkpt lat="43.61755" lon="6.48371">
        <ele>574.2</ele>
        <time>2024-01-07T12:04:49.000Z</time>
      </trkpt>
      <trkpt lat="43.61741" lon="6.48374">
        <ele>574</ele>
        <time>2024-01-07T12:04:30.000Z</time>
      </trkpt>
      <trkpt lat="43.61737" lon="6.48371">
        <ele>573.4</ele>
        <time>2024-01-07T12:04:21.000Z</time>
      </trkpt>
      <trkpt lat="43.61758" lon="6.48353">
        <ele>573.1</ele>
        <time>2024-01-07T12:03:33.000Z</time>
      </trkpt>
      <trkpt lat="43.61757" lon="6.48346">
        <ele>573</ele>
        <time>2024-01-07T12:03:26.000Z</time>
      </trkpt>
      <trkpt lat="43.61758" lon="6.48339">
        <ele>572.4</ele>
        <time>2024-01-07T12:03:20.000Z</time>
      </trkpt>
      <trkpt lat="43.61756" lon="6.48329">
        <ele>571.7</ele>
        <time>2024-01-07T12:03:04.000Z</time>
      </trkpt>
      <trkpt lat="43.61758" lon="6.48321">
        <ele>571.6</ele>
        <time>2024-01-07T12:02:55.000Z</time>
      </trkpt>
      <trkpt lat="43.6176" lon="6.48315">
        <ele>573.1</ele>
        <time>2024-01-07T12:02:47.000Z</time>
      </trkpt>
      <trkpt lat="43.61761" lon="6.48308">
        <ele>575.2</ele>
        <time>2024-01-07T12:02:38.000Z</time>
      </trkpt>
      <trkpt lat="43.61768" lon="6.483">
        <ele>577.1</ele>
        <time>2024-01-07T12:02:21.000Z</time>
      </trkpt>
      <trkpt lat="43.61772" lon="6.48296">
        <ele>577.7</ele>
        <time>2024-01-07T12:02:14.000Z</time>
      </trkpt>
      <trkpt lat="43.61783" lon="6.48282">
        <ele>579.5</ele>
        <time>2024-01-07T12:01:56.000Z</time>
      </trkpt>
      <trkpt lat="43.61787" lon="6.48277">
        <ele>580</ele>
        <time>2024-01-07T12:01:41.000Z</time>
      </trkpt>
      <trkpt lat="43.61791" lon="6.48277">
        <ele>578.8</ele>
        <time>2024-01-07T12:01:31.000Z</time>
      </trkpt>
      <trkpt lat="43.61795" lon="6.48279">
        <ele>577.5</ele>
        <time>2024-01-07T12:01:23.000Z</time>
      </trkpt>
      <trkpt lat="43.61799" lon="6.48285">
        <ele>576.4</ele>
        <time>2024-01-07T12:01:12.000Z</time>
      </trkpt>
      <trkpt lat="43.61798" lon="6.48291">
        <ele>573.6</ele>
        <time>2024-01-07T12:01:00.000Z</time>
      </trkpt>
      <trkpt lat="43.61798" lon="6.48284">
        <ele>573.7</ele>
        <time>2024-01-07T12:00:46.000Z</time>
      </trkpt>
      <trkpt lat="43.61803" lon="6.4828">
        <ele>571.3</ele>
        <time>2024-01-07T12:00:29.000Z</time>
      </trkpt>
      <trkpt lat="43.61806" lon="6.48292">
        <ele>567.4</ele>
        <time>2024-01-07T11:59:59.000Z</time>
      </trkpt>
      <trkpt lat="43.6181" lon="6.48299">
        <ele>566.5</ele>
        <time>2024-01-07T11:59:32.000Z</time>
      </trkpt>
      <trkpt lat="43.61808" lon="6.48294">
        <ele>565.6</ele>
        <time>2024-01-07T11:59:19.000Z</time>
      </trkpt>
      <trkpt lat="43.61816" lon="6.48276">
        <ele>565.3</ele>
        <time>2024-01-07T11:59:02.000Z</time>
      </trkpt>
      <trkpt lat="43.61821" lon="6.48278">
        <ele>563.9</ele>
        <time>2024-01-07T11:58:50.000Z</time>
      </trkpt>
      <trkpt lat="43.61826" lon="6.48279">
        <ele>562.8</ele>
        <time>2024-01-07T11:58:41.000Z</time>
      </trkpt>
      <trkpt lat="43.61831" lon="6.48279">
        <ele>561.3</ele>
        <time>2024-01-07T11:58:33.000Z</time>
      </trkpt>
      <trkpt lat="43.61835" lon="6.48276">
        <ele>560.2</ele>
        <time>2024-01-07T11:58:27.000Z</time>
      </trkpt>
      <trkpt lat="43.61839" lon="6.48274">
        <ele>558.5</ele>
        <time>2024-01-07T11:58:20.000Z</time>
      </trkpt>
      <trkpt lat="43.61844" lon="6.48275">
        <ele>557.1</ele>
        <time>2024-01-07T11:58:13.000Z</time>
      </trkpt>
      <trkpt lat="43.61849" lon="6.48273">
        <ele>555.8</ele>
        <time>2024-01-07T11:58:03.000Z</time>
      </trkpt>
      <trkpt lat="43.61854" lon="6.48272">
        <ele>554.8</ele>
        <time>2024-01-07T11:57:54.000Z</time>
      </trkpt>
      <trkpt lat="43.61873" lon="6.48263">
        <ele>553.3</ele>
        <time>2024-01-07T11:57:27.000Z</time>
      </trkpt>
      <trkpt lat="43.61877" lon="6.48265">
        <ele>552.7</ele>
        <time>2024-01-07T11:57:22.000Z</time>
      </trkpt>
      <trkpt lat="43.61882" lon="6.48267">
        <ele>552.9</ele>
        <time>2024-01-07T11:57:17.000Z</time>
      </trkpt>
      <trkpt lat="43.61885" lon="6.48272">
        <ele>552.4</ele>
        <time>2024-01-07T11:57:09.000Z</time>
      </trkpt>
      <trkpt lat="43.61889" lon="6.48272">
        <ele>550.9</ele>
        <time>2024-01-07T11:56:57.000Z</time>
      </trkpt>
      <trkpt lat="43.61892" lon="6.48278">
        <ele>550.8</ele>
        <time>2024-01-07T11:56:47.000Z</time>
      </trkpt>
      <trkpt lat="43.61901" lon="6.48272">
        <ele>550.8</ele>
        <time>2024-01-07T11:56:38.000Z</time>
      </trkpt>
      <trkpt lat="43.61907" lon="6.48273">
        <ele>550.4</ele>
        <time>2024-01-07T11:56:33.000Z</time>
      </trkpt>
      <trkpt lat="43.61911" lon="6.4827">
        <ele>549.5</ele>
        <time>2024-01-07T11:56:21.000Z</time>
      </trkpt>
      <trkpt lat="43.61916" lon="6.48269">
        <ele>548.1</ele>
        <time>2024-01-07T11:56:13.000Z</time>
      </trkpt>
      <trkpt lat="43.6192" lon="6.4827">
        <ele>547.6</ele>
        <time>2024-01-07T11:56:07.000Z</time>
      </trkpt>
      <trkpt lat="43.61926" lon="6.48271">
        <ele>546.7</ele>
        <time>2024-01-07T11:55:58.000Z</time>
      </trkpt>
      <trkpt lat="43.6193" lon="6.48271">
        <ele>546.4</ele>
        <time>2024-01-07T11:55:51.000Z</time>
      </trkpt>
      <trkpt lat="43.61935" lon="6.48269">
        <ele>546.2</ele>
        <time>2024-01-07T11:55:46.000Z</time>
      </trkpt>
      <trkpt lat="43.6194" lon="6.48268">
        <ele>545.3</ele>
        <time>2024-01-07T11:55:36.000Z</time>
      </trkpt>
      <trkpt lat="43.61944" lon="6.48268">
        <ele>544.7</ele>
        <time>2024-01-07T11:55:25.000Z</time>
      </trkpt>
      <trkpt lat="43.61947" lon="6.48274">
        <ele>544.3</ele>
        <time>2024-01-07T11:55:18.000Z</time>
      </trkpt>
      <trkpt lat="43.61951" lon="6.4828">
        <ele>544.9</ele>
        <time>2024-01-07T11:55:04.000Z</time>
      </trkpt>
      <trkpt lat="43.61955" lon="6.48282">
        <ele>543.9</ele>
        <time>2024-01-07T11:54:58.000Z</time>
      </trkpt>
      <trkpt lat="43.61959" lon="6.48277">
        <ele>540.5</ele>
        <time>2024-01-07T11:54:33.000Z</time>
      </trkpt>
      <trkpt lat="43.61963" lon="6.48274">
        <ele>531.8</ele>
        <time>2024-01-07T11:53:12.000Z</time>
      </trkpt>
      <trkpt lat="43.61959" lon="6.4827">
        <ele>531.4</ele>
        <time>2024-01-07T11:53:07.000Z</time>
      </trkpt>
      <trkpt lat="43.61955" lon="6.48265">
        <ele>531.1</ele>
        <time>2024-01-07T11:53:01.000Z</time>
      </trkpt>
      <trkpt lat="43.61951" lon="6.4826">
        <ele>531</ele>
        <time>2024-01-07T11:52:55.000Z</time>
      </trkpt>
      <trkpt lat="43.61948" lon="6.48254">
        <ele>531.3</ele>
        <time>2024-01-07T11:52:49.000Z</time>
      </trkpt>
      <trkpt lat="43.61935" lon="6.48243">
        <ele>531.3</ele>
        <time>2024-01-07T11:52:36.000Z</time>
      </trkpt>
      <trkpt lat="43.61934" lon="6.48236">
        <ele>531.8</ele>
        <time>2024-01-07T11:52:31.000Z</time>
      </trkpt>
      <trkpt lat="43.61926" lon="6.48228">
        <ele>531.4</ele>
        <time>2024-01-07T11:52:23.000Z</time>
      </trkpt>
      <trkpt lat="43.61921" lon="6.48225">
        <ele>530.9</ele>
        <time>2024-01-07T11:52:18.000Z</time>
      </trkpt>
      <trkpt lat="43.61908" lon="6.48214">
        <ele>530.4</ele>
        <time>2024-01-07T11:52:05.000Z</time>
      </trkpt>
      <trkpt lat="43.61906" lon="6.48207">
        <ele>529.6</ele>
        <time>2024-01-07T11:51:58.000Z</time>
      </trkpt>
      <trkpt lat="43.61902" lon="6.48203">
        <ele>529.7</ele>
        <time>2024-01-07T11:51:50.000Z</time>
      </trkpt>
      <trkpt lat="43.61899" lon="6.48198">
        <ele>529.2</ele>
        <time>2024-01-07T11:51:46.000Z</time>
      </trkpt>
      <trkpt lat="43.61895" lon="6.48191">
        <ele>528.7</ele>
        <time>2024-01-07T11:51:41.000Z</time>
      </trkpt>
      <trkpt lat="43.61891" lon="6.48187">
        <ele>528.3</ele>
        <time>2024-01-07T11:51:36.000Z</time>
      </trkpt>
      <trkpt lat="43.61886" lon="6.48184">
        <ele>527.9</ele>
        <time>2024-01-07T11:51:31.000Z</time>
      </trkpt>
      <trkpt lat="43.61882" lon="6.48181">
        <ele>527.4</ele>
        <time>2024-01-07T11:51:27.000Z</time>
      </trkpt>
      <trkpt lat="43.61879" lon="6.48175">
        <ele>525.9</ele>
        <time>2024-01-07T11:51:21.000Z</time>
      </trkpt>
      <trkpt lat="43.61876" lon="6.48171">
        <ele>525.1</ele>
        <time>2024-01-07T11:51:15.000Z</time>
      </trkpt>
      <trkpt lat="43.61872" lon="6.48168">
        <ele>523.9</ele>
        <time>2024-01-07T11:51:09.000Z</time>
      </trkpt>
      <trkpt lat="43.61867" lon="6.48166">
        <ele>523.2</ele>
        <time>2024-01-07T11:51:05.000Z</time>
      </trkpt>
      <trkpt lat="43.61857" lon="6.48161">
        <ele>522</ele>
        <time>2024-01-07T11:50:57.000Z</time>
      </trkpt>
      <trkpt lat="43.61853" lon="6.48158">
        <ele>521.3</ele>
        <time>2024-01-07T11:50:53.000Z</time>
      </trkpt>
      <trkpt lat="43.61848" lon="6.48154">
        <ele>520.4</ele>
        <time>2024-01-07T11:50:46.000Z</time>
      </trkpt>
      <trkpt lat="43.61845" lon="6.4815">
        <ele>520.6</ele>
        <time>2024-01-07T11:50:39.000Z</time>
      </trkpt>
      <trkpt lat="43.61841" lon="6.48144">
        <ele>519.9</ele>
        <time>2024-01-07T11:50:32.000Z</time>
      </trkpt>
      <trkpt lat="43.61839" lon="6.48138">
        <ele>518.3</ele>
        <time>2024-01-07T11:50:23.000Z</time>
      </trkpt>
      <trkpt lat="43.61836" lon="6.48133">
        <ele>517.2</ele>
        <time>2024-01-07T11:50:14.000Z</time>
      </trkpt>
      <trkpt lat="43.61832" lon="6.48131">
        <ele>517.1</ele>
        <time>2024-01-07T11:50:08.000Z</time>
      </trkpt>
      <trkpt lat="43.61827" lon="6.4813">
        <ele>516.5</ele>
        <time>2024-01-07T11:50:03.000Z</time>
      </trkpt>
      <trkpt lat="43.61824" lon="6.48124">
        <ele>516.4</ele>
        <time>2024-01-07T11:49:58.000Z</time>
      </trkpt>
      <trkpt lat="43.6182" lon="6.4812">
        <ele>515.9</ele>
        <time>2024-01-07T11:49:54.000Z</time>
      </trkpt>
      <trkpt lat="43.61816" lon="6.48117">
        <ele>515.2</ele>
        <time>2024-01-07T11:49:48.000Z</time>
      </trkpt>
      <trkpt lat="43.61811" lon="6.48115">
        <ele>514.3</ele>
        <time>2024-01-07T11:49:40.000Z</time>
      </trkpt>
      <trkpt lat="43.61806" lon="6.48116">
        <ele>514</ele>
        <time>2024-01-07T11:49:36.000Z</time>
      </trkpt>
      <trkpt lat="43.61801" lon="6.48115">
        <ele>513.9</ele>
        <time>2024-01-07T11:49:33.000Z</time>
      </trkpt>
      <trkpt lat="43.61791" lon="6.48113">
        <ele>513.6</ele>
        <time>2024-01-07T11:49:26.000Z</time>
      </trkpt>
      <trkpt lat="43.61785" lon="6.48113">
        <ele>513.3</ele>
        <time>2024-01-07T11:49:22.000Z</time>
      </trkpt>
      <trkpt lat="43.61781" lon="6.48115">
        <ele>512.8</ele>
        <time>2024-01-07T11:49:17.000Z</time>
      </trkpt>
      <trkpt lat="43.61776" lon="6.48113">
        <ele>512</ele>
        <time>2024-01-07T11:49:11.000Z</time>
      </trkpt>
      <trkpt lat="43.61772" lon="6.48108">
        <ele>511.5</ele>
        <time>2024-01-07T11:49:06.000Z</time>
      </trkpt>
      <trkpt lat="43.61768" lon="6.48104">
        <ele>510.3</ele>
        <time>2024-01-07T11:48:56.000Z</time>
      </trkpt>
      <trkpt lat="43.61764" lon="6.48106">
        <ele>510</ele>
        <time>2024-01-07T11:48:51.000Z</time>
      </trkpt>
      <trkpt lat="43.61759" lon="6.48107">
        <ele>509.2</ele>
        <time>2024-01-07T11:48:44.000Z</time>
      </trkpt>
      <trkpt lat="43.61753" lon="6.48107">
        <ele>508.4</ele>
        <time>2024-01-07T11:48:39.000Z</time>
      </trkpt>
      <trkpt lat="43.61748" lon="6.48106">
        <ele>507.3</ele>
        <time>2024-01-07T11:48:34.000Z</time>
      </trkpt>
      <trkpt lat="43.61743" lon="6.48106">
        <ele>506.9</ele>
        <time>2024-01-07T11:48:29.000Z</time>
      </trkpt>
      <trkpt lat="43.61738" lon="6.48108">
        <ele>506.7</ele>
        <time>2024-01-07T11:48:24.000Z</time>
      </trkpt>
      <trkpt lat="43.61733" lon="6.48106">
        <ele>506.9</ele>
        <time>2024-01-07T11:48:17.000Z</time>
      </trkpt>
      <trkpt lat="43.61728" lon="6.48105">
        <ele>506.5</ele>
        <time>2024-01-07T11:48:11.000Z</time>
      </trkpt>
      <trkpt lat="43.61724" lon="6.48103">
        <ele>506.1</ele>
        <time>2024-01-07T11:48:06.000Z</time>
      </trkpt>
      <trkpt lat="43.6172" lon="6.48099">
        <ele>505.7</ele>
        <time>2024-01-07T11:48:01.000Z</time>
      </trkpt>
      <trkpt lat="43.61714" lon="6.48097">
        <ele>505.6</ele>
        <time>2024-01-07T11:47:57.000Z</time>
      </trkpt>
      <trkpt lat="43.61709" lon="6.48096">
        <ele>505.3</ele>
        <time>2024-01-07T11:47:48.000Z</time>
      </trkpt>
      <trkpt lat="43.61704" lon="6.48095">
        <ele>505</ele>
        <time>2024-01-07T11:47:42.000Z</time>
      </trkpt>
      <trkpt lat="43.61699" lon="6.48097">
        <ele>504.8</ele>
        <time>2024-01-07T11:47:38.000Z</time>
      </trkpt>
      <trkpt lat="43.61694" lon="6.481">
        <ele>503.8</ele>
        <time>2024-01-07T11:47:34.000Z</time>
      </trkpt>
      <trkpt lat="43.6169" lon="6.48096">
        <ele>503.1</ele>
        <time>2024-01-07T11:47:30.000Z</time>
      </trkpt>
      <trkpt lat="43.61682" lon="6.48089">
        <ele>501.8</ele>
        <time>2024-01-07T11:47:23.000Z</time>
      </trkpt>
      <trkpt lat="43.61678" lon="6.48087">
        <ele>501.2</ele>
        <time>2024-01-07T11:47:18.000Z</time>
      </trkpt>
      <trkpt lat="43.61673" lon="6.48087">
        <ele>501</ele>
        <time>2024-01-07T11:47:14.000Z</time>
      </trkpt>
      <trkpt lat="43.61668" lon="6.48086">
        <ele>500.8</ele>
        <time>2024-01-07T11:47:07.000Z</time>
      </trkpt>
      <trkpt lat="43.61664" lon="6.48086">
        <ele>500.2</ele>
        <time>2024-01-07T11:46:58.000Z</time>
      </trkpt>
      <trkpt lat="43.61659" lon="6.48089">
        <ele>499.9</ele>
        <time>2024-01-07T11:46:53.000Z</time>
      </trkpt>
      <trkpt lat="43.61654" lon="6.4809">
        <ele>499.6</ele>
        <time>2024-01-07T11:46:49.000Z</time>
      </trkpt>
      <trkpt lat="43.61649" lon="6.48088">
        <ele>499.9</ele>
        <time>2024-01-07T11:46:42.000Z</time>
      </trkpt>
      <trkpt lat="43.61644" lon="6.48087">
        <ele>499.6</ele>
        <time>2024-01-07T11:46:36.000Z</time>
      </trkpt>
      <trkpt lat="43.6164" lon="6.48087">
        <ele>499.3</ele>
        <time>2024-01-07T11:46:29.000Z</time>
      </trkpt>
      <trkpt lat="43.61635" lon="6.48084">
        <ele>499.1</ele>
        <time>2024-01-07T11:46:25.000Z</time>
      </trkpt>
      <trkpt lat="43.6163" lon="6.48083">
        <ele>498.7</ele>
        <time>2024-01-07T11:46:19.000Z</time>
      </trkpt>
      <trkpt lat="43.6162" lon="6.4808">
        <ele>498.2</ele>
        <time>2024-01-07T11:46:09.000Z</time>
      </trkpt>
      <trkpt lat="43.61615" lon="6.48079">
        <ele>497.9</ele>
        <time>2024-01-07T11:46:04.000Z</time>
      </trkpt>
      <trkpt lat="43.6161" lon="6.4808">
        <ele>497.4</ele>
        <time>2024-01-07T11:45:58.000Z</time>
      </trkpt>
      <trkpt lat="43.61604" lon="6.48084">
        <ele>497.1</ele>
        <time>2024-01-07T11:45:52.000Z</time>
      </trkpt>
      <trkpt lat="43.616" lon="6.48087">
        <ele>496.2</ele>
        <time>2024-01-07T11:45:46.000Z</time>
      </trkpt>
      <trkpt lat="43.61595" lon="6.48091">
        <ele>496.1</ele>
        <time>2024-01-07T11:45:40.000Z</time>
      </trkpt>
      <trkpt lat="43.61591" lon="6.48095">
        <ele>496.1</ele>
        <time>2024-01-07T11:45:34.000Z</time>
      </trkpt>
      <trkpt lat="43.61587" lon="6.48093">
        <ele>496.2</ele>
        <time>2024-01-07T11:45:29.000Z</time>
      </trkpt>
      <trkpt lat="43.61582" lon="6.48097">
        <ele>496</ele>
        <time>2024-01-07T11:45:25.000Z</time>
      </trkpt>
      <trkpt lat="43.61573" lon="6.48104">
        <ele>496.2</ele>
        <time>2024-01-07T11:45:18.000Z</time>
      </trkpt>
      <trkpt lat="43.61564" lon="6.48111">
        <ele>495.3</ele>
        <time>2024-01-07T11:45:11.000Z</time>
      </trkpt>
      <trkpt lat="43.61558" lon="6.48113">
        <ele>495</ele>
        <time>2024-01-07T11:45:05.000Z</time>
      </trkpt>
      <trkpt lat="43.61552" lon="6.48112">
        <ele>494.8</ele>
        <time>2024-01-07T11:45:01.000Z</time>
      </trkpt>
      <trkpt lat="43.61547" lon="6.48109">
        <ele>494.7</ele>
        <time>2024-01-07T11:44:51.000Z</time>
      </trkpt>
      <trkpt lat="43.61543" lon="6.4811">
        <ele>494.4</ele>
        <time>2024-01-07T11:44:47.000Z</time>
      </trkpt>
      <trkpt lat="43.61538" lon="6.48113">
        <ele>493.7</ele>
        <time>2024-01-07T11:44:43.000Z</time>
      </trkpt>
      <trkpt lat="43.61535" lon="6.48118">
        <ele>493.2</ele>
        <time>2024-01-07T11:44:38.000Z</time>
      </trkpt>
      <trkpt lat="43.61531" lon="6.48122">
        <ele>493.4</ele>
        <time>2024-01-07T11:44:34.000Z</time>
      </trkpt>
      <trkpt lat="43.61526" lon="6.48127">
        <ele>492.9</ele>
        <time>2024-01-07T11:44:27.000Z</time>
      </trkpt>
      <trkpt lat="43.61521" lon="6.48125">
        <ele>491.3</ele>
        <time>2024-01-07T11:44:16.000Z</time>
      </trkpt>
      <trkpt lat="43.61516" lon="6.48125">
        <ele>490.3</ele>
        <time>2024-01-07T11:44:08.000Z</time>
      </trkpt>
      <trkpt lat="43.61511" lon="6.48125">
        <ele>489.6</ele>
        <time>2024-01-07T11:44:03.000Z</time>
      </trkpt>
      <trkpt lat="43.61506" lon="6.48127">
        <ele>488.8</ele>
        <time>2024-01-07T11:43:57.000Z</time>
      </trkpt>
      <trkpt lat="43.61501" lon="6.48126">
        <ele>488.5</ele>
        <time>2024-01-07T11:43:53.000Z</time>
      </trkpt>
      <trkpt lat="43.61496" lon="6.48126">
        <ele>488</ele>
        <time>2024-01-07T11:43:47.000Z</time>
      </trkpt>
      <trkpt lat="43.61491" lon="6.48128">
        <ele>486.9</ele>
        <time>2024-01-07T11:43:38.000Z</time>
      </trkpt>
      <trkpt lat="43.61487" lon="6.48131">
        <ele>486.2</ele>
        <time>2024-01-07T11:43:34.000Z</time>
      </trkpt>
      <trkpt lat="43.61476" lon="6.48134">
        <ele>484.3</ele>
        <time>2024-01-07T11:43:25.000Z</time>
      </trkpt>
      <trkpt lat="43.61471" lon="6.48133">
        <ele>483.6</ele>
        <time>2024-01-07T11:43:13.000Z</time>
      </trkpt>
      <trkpt lat="43.61466" lon="6.48134">
        <ele>482.9</ele>
        <time>2024-01-07T11:43:08.000Z</time>
      </trkpt>
      <trkpt lat="43.61461" lon="6.48134">
        <ele>482.6</ele>
        <time>2024-01-07T11:43:03.000Z</time>
      </trkpt>
      <trkpt lat="43.61457" lon="6.48137">
        <ele>482.2</ele>
        <time>2024-01-07T11:42:55.000Z</time>
      </trkpt>
      <trkpt lat="43.61451" lon="6.48141">
        <ele>481.2</ele>
        <time>2024-01-07T11:42:48.000Z</time>
      </trkpt>
      <trkpt lat="43.61446" lon="6.48142">
        <ele>480.6</ele>
        <time>2024-01-07T11:42:45.000Z</time>
      </trkpt>
      <trkpt lat="43.61442" lon="6.48139">
        <ele>479.7</ele>
        <time>2024-01-07T11:42:40.000Z</time>
      </trkpt>
      <trkpt lat="43.61437" lon="6.48141">
        <ele>479</ele>
        <time>2024-01-07T11:42:34.000Z</time>
      </trkpt>
      <trkpt lat="43.61432" lon="6.4814">
        <ele>478.9</ele>
        <time>2024-01-07T11:42:28.000Z</time>
      </trkpt>
      <trkpt lat="43.61428" lon="6.48137">
        <ele>478.5</ele>
        <time>2024-01-07T11:42:25.000Z</time>
      </trkpt>
      <trkpt lat="43.61422" lon="6.48136">
        <ele>478.2</ele>
        <time>2024-01-07T11:42:18.000Z</time>
      </trkpt>
      <trkpt lat="43.61416" lon="6.48138">
        <ele>477.7</ele>
        <time>2024-01-07T11:42:12.000Z</time>
      </trkpt>
      <trkpt lat="43.61412" lon="6.48139">
        <ele>477.4</ele>
        <time>2024-01-07T11:42:05.000Z</time>
      </trkpt>
      <trkpt lat="43.61407" lon="6.48135">
        <ele>477.3</ele>
        <time>2024-01-07T11:41:47.000Z</time>
      </trkpt>
      <trkpt lat="43.61401" lon="6.48132">
        <ele>477.5</ele>
        <time>2024-01-07T11:41:41.000Z</time>
      </trkpt>
      <trkpt lat="43.61397" lon="6.48134">
        <ele>477.2</ele>
        <time>2024-01-07T11:41:36.000Z</time>
      </trkpt>
      <trkpt lat="43.61391" lon="6.48135">
        <ele>476.6</ele>
        <time>2024-01-07T11:41:32.000Z</time>
      </trkpt>
      <trkpt lat="43.61385" lon="6.48137">
        <ele>476</ele>
        <time>2024-01-07T11:41:27.000Z</time>
      </trkpt>
      <trkpt lat="43.61381" lon="6.48139">
        <ele>475.3</ele>
        <time>2024-01-07T11:41:24.000Z</time>
      </trkpt>
      <trkpt lat="43.61375" lon="6.4814">
        <ele>474.3</ele>
        <time>2024-01-07T11:41:19.000Z</time>
      </trkpt>
      <trkpt lat="43.61371" lon="6.48142">
        <ele>474.2</ele>
        <time>2024-01-07T11:41:16.000Z</time>
      </trkpt>
      <trkpt lat="43.61366" lon="6.48147">
        <ele>473.7</ele>
        <time>2024-01-07T11:41:12.000Z</time>
      </trkpt>
      <trkpt lat="43.61359" lon="6.48153">
        <ele>473.8</ele>
        <time>2024-01-07T11:40:55.000Z</time>
      </trkpt>
      <trkpt lat="43.61355" lon="6.48155">
        <ele>474.5</ele>
        <time>2024-01-07T11:40:48.000Z</time>
      </trkpt>
      <trkpt lat="43.6135" lon="6.48149">
        <ele>475.8</ele>
        <time>2024-01-07T11:40:43.000Z</time>
      </trkpt>
      <trkpt lat="43.61346" lon="6.48145">
        <ele>478</ele>
        <time>2024-01-07T11:40:38.000Z</time>
      </trkpt>
      <trkpt lat="43.61342" lon="6.48142">
        <ele>479.3</ele>
        <time>2024-01-07T11:40:28.000Z</time>
      </trkpt>
      <trkpt lat="43.61337" lon="6.4814">
        <ele>480.2</ele>
        <time>2024-01-07T11:40:23.000Z</time>
      </trkpt>
      <trkpt lat="43.61324" lon="6.48149">
        <ele>481.5</ele>
        <time>2024-01-07T11:40:10.000Z</time>
      </trkpt>
      <trkpt lat="43.61319" lon="6.48146">
        <ele>481.4</ele>
        <time>2024-01-07T11:40:04.000Z</time>
      </trkpt>
      <trkpt lat="43.61309" lon="6.4815">
        <ele>482</ele>
        <time>2024-01-07T11:39:54.000Z</time>
      </trkpt>
      <trkpt lat="43.61281" lon="6.48166">
        <ele>483.1</ele>
        <time>2024-01-07T11:39:29.000Z</time>
      </trkpt>
      <trkpt lat="43.61277" lon="6.48168">
        <ele>483.6</ele>
        <time>2024-01-07T11:39:23.000Z</time>
      </trkpt>
      <trkpt lat="43.61275" lon="6.48174">
        <ele>483.8</ele>
        <time>2024-01-07T11:39:17.000Z</time>
      </trkpt>
      <trkpt lat="43.61271" lon="6.48178">
        <ele>484.9</ele>
        <time>2024-01-07T11:39:05.000Z</time>
      </trkpt>
      <trkpt lat="43.61274" lon="6.48182">
        <ele>485.4</ele>
        <time>2024-01-07T11:38:58.000Z</time>
      </trkpt>
      <trkpt lat="43.61279" lon="6.48186">
        <ele>487.6</ele>
        <time>2024-01-07T11:38:05.000Z</time>
      </trkpt>
      <trkpt lat="43.61281" lon="6.4818">
        <ele>487.5</ele>
        <time>2024-01-07T11:38:00.000Z</time>
      </trkpt>
      <trkpt lat="43.61282" lon="6.48174">
        <ele>483.3</ele>
        <time>2024-01-07T11:37:41.000Z</time>
      </trkpt>
      <trkpt lat="43.61284" lon="6.48167">
        <ele>483.2</ele>
        <time>2024-01-07T11:37:26.000Z</time>
      </trkpt>
      <trkpt lat="43.61286" lon="6.4816">
        <ele>482.3</ele>
        <time>2024-01-07T11:37:13.000Z</time>
      </trkpt>
      <trkpt lat="43.61283" lon="6.48165">
        <ele>479.7</ele>
        <time>2024-01-07T11:36:49.000Z</time>
      </trkpt>
      <trkpt lat="43.61278" lon="6.48162">
        <ele>480.1</ele>
        <time>2024-01-07T11:36:42.000Z</time>
      </trkpt>
      <trkpt lat="43.61278" lon="6.48155">
        <ele>479.4</ele>
        <time>2024-01-07T11:36:34.000Z</time>
      </trkpt>
      <trkpt lat="43.61274" lon="6.48151">
        <ele>479.6</ele>
        <time>2024-01-07T11:36:29.000Z</time>
      </trkpt>
      <trkpt lat="43.61272" lon="6.48145">
        <ele>479.5</ele>
        <time>2024-01-07T11:36:26.000Z</time>
      </trkpt>
      <trkpt lat="43.61268" lon="6.48139">
        <ele>479.9</ele>
        <time>2024-01-07T11:36:20.000Z</time>
      </trkpt>
      <trkpt lat="43.61265" lon="6.48134">
        <ele>480</ele>
        <time>2024-01-07T11:36:15.000Z</time>
      </trkpt>
      <trkpt lat="43.6126" lon="6.48135">
        <ele>480.4</ele>
        <time>2024-01-07T11:36:12.000Z</time>
      </trkpt>
      <trkpt lat="43.61254" lon="6.48138">
        <ele>481</ele>
        <time>2024-01-07T11:36:06.000Z</time>
      </trkpt>
      <trkpt lat="43.61248" lon="6.48142">
        <ele>481.2</ele>
        <time>2024-01-07T11:36:02.000Z</time>
      </trkpt>
      <trkpt lat="43.61252" lon="6.48144">
        <ele>481.1</ele>
        <time>2024-01-07T11:35:58.000Z</time>
      </trkpt>
      <trkpt lat="43.61248" lon="6.48146">
        <ele>481.2</ele>
        <time>2024-01-07T11:35:53.000Z</time>
      </trkpt>
      <trkpt lat="43.61248" lon="6.48153">
        <ele>481.1</ele>
        <time>2024-01-07T11:35:46.000Z</time>
      </trkpt>
      <trkpt lat="43.61252" lon="6.48156">
        <ele>481</ele>
        <time>2024-01-07T11:35:42.000Z</time>
      </trkpt>
      <trkpt lat="43.61256" lon="6.48152">
        <ele>480.8</ele>
        <time>2024-01-07T11:35:38.000Z</time>
      </trkpt>
      <trkpt lat="43.6126" lon="6.48153">
        <ele>480.9</ele>
        <time>2024-01-07T11:35:32.000Z</time>
      </trkpt>
      <trkpt lat="43.61261" lon="6.48147">
        <ele>480.9</ele>
        <time>2024-01-07T11:35:26.000Z</time>
      </trkpt>
      <trkpt lat="43.61257" lon="6.48142">
        <ele>481</ele>
        <time>2024-01-07T11:35:21.000Z</time>
      </trkpt>
      <trkpt lat="43.61245" lon="6.48115">
        <ele>480.8</ele>
        <time>2024-01-07T11:34:53.000Z</time>
      </trkpt>
      <trkpt lat="43.6124" lon="6.48112">
        <ele>479.6</ele>
        <time>2024-01-07T11:34:40.000Z</time>
      </trkpt>
      <trkpt lat="43.61237" lon="6.4812">
        <ele>479.5</ele>
        <time>2024-01-07T11:34:35.000Z</time>
      </trkpt>
      <trkpt lat="43.61224" lon="6.48111">
        <ele>479.4</ele>
        <time>2024-01-07T11:34:25.000Z</time>
      </trkpt>
      <trkpt lat="43.61219" lon="6.48114">
        <ele>479.3</ele>
        <time>2024-01-07T11:34:21.000Z</time>
      </trkpt>
      <trkpt lat="43.61219" lon="6.48121">
        <ele>479.3</ele>
        <time>2024-01-07T11:34:17.000Z</time>
      </trkpt>
      <trkpt lat="43.61216" lon="6.48127">
        <ele>479.5</ele>
        <time>2024-01-07T11:34:12.000Z</time>
      </trkpt>
      <trkpt lat="43.61211" lon="6.48129">
        <ele>479.4</ele>
        <time>2024-01-07T11:34:07.000Z</time>
      </trkpt>
      <trkpt lat="43.61205" lon="6.48127">
        <ele>479.2</ele>
        <time>2024-01-07T11:34:01.000Z</time>
      </trkpt>
      <trkpt lat="43.61206" lon="6.48151">
        <ele>478.9</ele>
        <time>2024-01-07T11:33:51.000Z</time>
      </trkpt>
      <trkpt lat="43.61203" lon="6.48157">
        <ele>478.7</ele>
        <time>2024-01-07T11:33:48.000Z</time>
      </trkpt>
      <trkpt lat="43.61199" lon="6.4816">
        <ele>478.5</ele>
        <time>2024-01-07T11:33:43.000Z</time>
      </trkpt>
      <trkpt lat="43.61195" lon="6.48165">
        <ele>478</ele>
        <time>2024-01-07T11:33:37.000Z</time>
      </trkpt>
      <trkpt lat="43.61192" lon="6.4817">
        <ele>477.9</ele>
        <time>2024-01-07T11:33:32.000Z</time>
      </trkpt>
      <trkpt lat="43.61188" lon="6.48174">
        <ele>477.6</ele>
        <time>2024-01-07T11:33:28.000Z</time>
      </trkpt>
      <trkpt lat="43.61183" lon="6.48176">
        <ele>477.4</ele>
        <time>2024-01-07T11:33:25.000Z</time>
      </trkpt>
      <trkpt lat="43.61179" lon="6.4818">
        <ele>476.8</ele>
        <time>2024-01-07T11:33:21.000Z</time>
      </trkpt>
      <trkpt lat="43.61175" lon="6.48185">
        <ele>476.6</ele>
        <time>2024-01-07T11:33:18.000Z</time>
      </trkpt>
      <trkpt lat="43.61172" lon="6.4819">
        <ele>476.2</ele>
        <time>2024-01-07T11:33:14.000Z</time>
      </trkpt>
      <trkpt lat="43.61168" lon="6.48194">
        <ele>475.9</ele>
        <time>2024-01-07T11:33:11.000Z</time>
      </trkpt>
      <trkpt lat="43.61163" lon="6.48193">
        <ele>475.3</ele>
        <time>2024-01-07T11:33:07.000Z</time>
      </trkpt>
      <trkpt lat="43.61145" lon="6.48195">
        <ele>473.7</ele>
        <time>2024-01-07T11:32:57.000Z</time>
      </trkpt>
      <trkpt lat="43.6114" lon="6.48195">
        <ele>472.9</ele>
        <time>2024-01-07T11:32:53.000Z</time>
      </trkpt>
      <trkpt lat="43.61135" lon="6.48194">
        <ele>471.9</ele>
        <time>2024-01-07T11:32:49.000Z</time>
      </trkpt>
      <trkpt lat="43.6113" lon="6.48194">
        <ele>471.1</ele>
        <time>2024-01-07T11:32:45.000Z</time>
      </trkpt>
      <trkpt lat="43.61125" lon="6.48192">
        <ele>470.2</ele>
        <time>2024-01-07T11:32:41.000Z</time>
      </trkpt>
      <trkpt lat="43.61119" lon="6.4819">
        <ele>469.3</ele>
        <time>2024-01-07T11:32:36.000Z</time>
      </trkpt>
      <trkpt lat="43.61115" lon="6.48191">
        <ele>468.5</ele>
        <time>2024-01-07T11:32:31.000Z</time>
      </trkpt>
      <trkpt lat="43.6111" lon="6.48192">
        <ele>467.6</ele>
        <time>2024-01-07T11:32:27.000Z</time>
      </trkpt>
      <trkpt lat="43.61106" lon="6.48194">
        <ele>466.4</ele>
        <time>2024-01-07T11:32:19.000Z</time>
      </trkpt>
      <trkpt lat="43.61102" lon="6.48198">
        <ele>465.3</ele>
        <time>2024-01-07T11:32:13.000Z</time>
      </trkpt>
      <trkpt lat="43.61099" lon="6.48204">
        <ele>463.4</ele>
        <time>2024-01-07T11:32:07.000Z</time>
      </trkpt>
      <trkpt lat="43.61094" lon="6.48207">
        <ele>462</ele>
        <time>2024-01-07T11:32:02.000Z</time>
      </trkpt>
      <trkpt lat="43.61092" lon="6.48214">
        <ele>461.5</ele>
        <time>2024-01-07T11:31:57.000Z</time>
      </trkpt>
      <trkpt lat="43.61088" lon="6.48218">
        <ele>460.6</ele>
        <time>2024-01-07T11:31:51.000Z</time>
      </trkpt>
      <trkpt lat="43.61084" lon="6.48221">
        <ele>460.8</ele>
        <time>2024-01-07T11:31:46.000Z</time>
      </trkpt>
      <trkpt lat="43.6108" lon="6.48225">
        <ele>460.8</ele>
        <time>2024-01-07T11:31:41.000Z</time>
      </trkpt>
      <trkpt lat="43.61074" lon="6.48226">
        <ele>460.5</ele>
        <time>2024-01-07T11:31:34.000Z</time>
      </trkpt>
      <trkpt lat="43.61069" lon="6.48226">
        <ele>456.3</ele>
        <time>2024-01-07T11:31:30.000Z</time>
      </trkpt>
      <trkpt lat="43.61064" lon="6.48225">
        <ele>451.5</ele>
        <time>2024-01-07T11:31:26.000Z</time>
      </trkpt>
      <trkpt lat="43.61058" lon="6.48226">
        <ele>448.3</ele>
        <time>2024-01-07T11:31:22.000Z</time>
      </trkpt>
      <trkpt lat="43.61054" lon="6.4823">
        <ele>446.2</ele>
        <time>2024-01-07T11:31:18.000Z</time>
      </trkpt>
      <trkpt lat="43.6105" lon="6.48233">
        <ele>442.5</ele>
        <time>2024-01-07T11:31:15.000Z</time>
      </trkpt>
      <trkpt lat="43.61046" lon="6.48237">
        <ele>437.3</ele>
        <time>2024-01-07T11:31:12.000Z</time>
      </trkpt>
      <trkpt lat="43.61035" lon="6.48252">
        <ele>430.2</ele>
        <time>2024-01-07T11:31:02.000Z</time>
      </trkpt>
      <trkpt lat="43.61035" lon="6.48259">
        <ele>428.6</ele>
        <time>2024-01-07T11:30:57.000Z</time>
      </trkpt>
      <trkpt lat="43.61035" lon="6.48267">
        <ele>426.1</ele>
        <time>2024-01-07T11:30:53.000Z</time>
      </trkpt>
      <trkpt lat="43.61034" lon="6.48274">
        <ele>423</ele>
        <time>2024-01-07T11:30:49.000Z</time>
      </trkpt>
      <trkpt lat="43.61032" lon="6.4828">
        <ele>420.6</ele>
        <time>2024-01-07T11:30:44.000Z</time>
      </trkpt>
      <trkpt lat="43.61032" lon="6.48288">
        <ele>417.4</ele>
        <time>2024-01-07T11:30:40.000Z</time>
      </trkpt>
      <trkpt lat="43.61035" lon="6.48293">
        <ele>414.7</ele>
        <time>2024-01-07T11:30:37.000Z</time>
      </trkpt>
      <trkpt lat="43.61039" lon="6.48296">
        <ele>411.9</ele>
        <time>2024-01-07T11:30:32.000Z</time>
      </trkpt>
      <trkpt lat="43.61035" lon="6.483">
        <ele>410.7</ele>
        <time>2024-01-07T11:30:28.000Z</time>
      </trkpt>
      <trkpt lat="43.61027" lon="6.48295">
        <ele>406.3</ele>
        <time>2024-01-07T11:30:11.000Z</time>
      </trkpt>
      <trkpt lat="43.61022" lon="6.48295">
        <ele>405.8</ele>
        <time>2024-01-07T11:30:04.000Z</time>
      </trkpt>
      <trkpt lat="43.61018" lon="6.48299">
        <ele>404.7</ele>
        <time>2024-01-07T11:29:58.000Z</time>
      </trkpt>
      <trkpt lat="43.61022" lon="6.48301">
        <ele>396.9</ele>
        <time>2024-01-07T11:29:24.000Z</time>
      </trkpt>
      <trkpt lat="43.61027" lon="6.48303">
        <ele>396.6</ele>
        <time>2024-01-07T11:29:19.000Z</time>
      </trkpt>
      <trkpt lat="43.61027" lon="6.48309">
        <ele>395.8</ele>
        <time>2024-01-07T11:29:05.000Z</time>
      </trkpt>
      <trkpt lat="43.61022" lon="6.48306">
        <ele>395.4</ele>
        <time>2024-01-07T11:28:55.000Z</time>
      </trkpt>
      <trkpt lat="43.61016" lon="6.48309">
        <ele>396.4</ele>
        <time>2024-01-07T11:28:34.000Z</time>
      </trkpt>
      <trkpt lat="43.61034" lon="6.48341">
        <ele>465</ele>
      </trkpt>
      <trkpt lat="43.61072" lon="6.48376">
        <ele>465</ele>
      </trkpt>
      <trkpt lat="43.61126" lon="6.48387">
        <ele>466</ele>
      </trkpt>
      <trkpt lat="43.61182" lon="6.48406">
        <ele>468.6</ele>
      </trkpt>
      <trkpt lat="43.61253" lon="6.4847">
        <ele>470.3</ele>
      </trkpt>
      <trkpt lat="43.61407" lon="6.48599">
        <ele>477</ele>
      </trkpt>
      <trkpt lat="43.61541" lon="6.48691">
        <ele>486.9</ele>
      </trkpt>
      <trkpt lat="43.61603" lon="6.48781">
        <ele>480.9</ele>
      </trkpt>
      <trkpt lat="43.61667" lon="6.48801">
        <ele>483.6</ele>
      </trkpt>
      <trkpt lat="43.61797" lon="6.48859">
        <ele>489.1</ele>
      </trkpt>
      <trkpt lat="43.61821" lon="6.48889">
        <ele>494.5</ele>
      </trkpt>
      <trkpt lat="43.61839" lon="6.48947">
        <ele>497.4</ele>
      </trkpt>
      <trkpt lat="43.61821" lon="6.49007">
        <ele>501.1</ele>
      </trkpt>
      <trkpt lat="43.61816" lon="6.4905">
        <ele>503.4</ele>
      </trkpt>
      <trkpt lat="43.61811" lon="6.49105">
        <ele>504.7</ele>
      </trkpt>
      <trkpt lat="43.61768" lon="6.4903">
        <ele>532.9</ele>
      </trkpt>
      <trkpt lat="43.61754" lon="6.48992">
        <ele>544.4</ele>
      </trkpt>
      <trkpt lat="43.61747" lon="6.49075">
        <ele>550.3</ele>
      </trkpt>
      <trkpt lat="43.6174" lon="6.49241">
        <ele>566.3</ele>
      </trkpt>
      <trkpt lat="43.61713" lon="6.49275">
        <ele>581.1</ele>
      </trkpt>
      <trkpt lat="43.6171" lon="6.49333">
        <ele>571.8</ele>
      </trkpt>
      <trkpt lat="43.61712" lon="6.49391">
        <ele>569.5</ele>
      </trkpt>
      <trkpt lat="43.61704" lon="6.49427">
        <ele>565.6</ele>
      </trkpt>
      <trkpt lat="43.61707" lon="6.49584">
        <ele>557.2</ele>
      </trkpt>
      <trkpt lat="43.61695" lon="6.49627">
        <ele>557.1</ele>
      </trkpt>
      <trkpt lat="43.61647" lon="6.49751">
        <ele>562.2</ele>
      </trkpt>
      <trkpt lat="43.61628" lon="6.4979">
        <ele>567.4</ele>
      </trkpt>
      <trkpt lat="43.61589" lon="6.49861">
        <ele>575</ele>
      </trkpt>
      <trkpt lat="43.616" lon="6.49899">
        <ele>565.6</ele>
      </trkpt>
      <trkpt lat="43.61612" lon="6.49955">
        <ele>563.4</ele>
      </trkpt>
      <trkpt lat="43.61645" lon="6.50004">
        <ele>556.8</ele>
      </trkpt>
      <trkpt lat="43.61645" lon="6.50024">
        <ele>556.2</ele>
      </trkpt>
      <trkpt lat="43.61581" lon="6.50122">
        <ele>564.2</ele>
      </trkpt>
      <trkpt lat="43.6155" lon="6.50168">
        <ele>568.7</ele>
      </trkpt>
      <trkpt lat="43.61528" lon="6.5024">
        <ele>578.2</ele>
      </trkpt>
      <trkpt lat="43.61536" lon="6.50301">
        <ele>576.5</ele>
      </trkpt>
      <trkpt lat="43.61563" lon="6.50371">
        <ele>574.9</ele>
      </trkpt>
      <trkpt lat="43.61572" lon="6.50457">
        <ele>566.5</ele>
      </trkpt>
      <trkpt lat="43.61584" lon="6.50513">
        <ele>559.2</ele>
      </trkpt>
      <trkpt lat="43.61555" lon="6.5056">
        <ele>562</ele>
      </trkpt>
      <trkpt lat="43.61563" lon="6.50715">
        <ele>564.5</ele>
      </trkpt>
      <trkpt lat="43.61546" lon="6.50785">
        <ele>565.9</ele>
      </trkpt>
      <trkpt lat="43.61556" lon="6.50818">
        <ele>566</ele>
      </trkpt>
      <trkpt lat="43.61629" lon="6.50826">
        <ele>566.2</ele>
      </trkpt>
      <trkpt lat="43.61671" lon="6.50876">
        <ele>570.9</ele>
      </trkpt>
      <trkpt lat="43.61751" lon="6.50959">
        <ele>569.5</ele>
      </trkpt>
      <trkpt lat="43.61785" lon="6.50959">
        <ele>568.8</ele>
      </trkpt>
      <trkpt lat="43.61844" lon="6.50899">
        <ele>572.6</ele>
      </trkpt>
      <trkpt lat="43.61943" lon="6.50824">
        <ele>574.5</ele>
      </trkpt>
      <trkpt lat="43.61971" lon="6.50777">
        <ele>576.3</ele>
      </trkpt>
      <trkpt lat="43.62013" lon="6.5074">
        <ele>577.9</ele>
      </trkpt>
      <trkpt lat="43.61954" lon="6.50736">
        <ele>585.4</ele>
      </trkpt>
      <trkpt lat="43.61904" lon="6.50715">
        <ele>597.7</ele>
      </trkpt>
      <trkpt lat="43.6183" lon="6.50648">
        <ele>624.4</ele>
      </trkpt>
      <trkpt lat="43.61791" lon="6.50616">
        <ele>641.2</ele>
      </trkpt>
      <trkpt lat="43.61782" lon="6.50603">
        <ele>645.7</ele>
      </trkpt>
      <trkpt lat="43.61915" lon="6.50449">
        <ele>677.4</ele>
      </trkpt>
      <trkpt lat="43.61957" lon="6.50423">
        <ele>683.8</ele>
      </trkpt>
      <trkpt lat="43.62063" lon="6.50296">
        <ele>705.6</ele>
      </trkpt>
      <trkpt lat="43.62151" lon="6.50191">
        <ele>716.5</ele>
      </trkpt>
      <trkpt lat="43.62212" lon="6.50097">
        <ele>719.1</ele>
      </trkpt>
      <trkpt lat="43.62207" lon="6.50024">
        <ele>719.9</ele>
      </trkpt>
      <trkpt lat="43.62207" lon="6.49966">
        <ele>718.6</ele>
      </trkpt>
      <trkpt lat="43.6224" lon="6.49852">
        <ele>717.5</ele>
      </trkpt>
      <trkpt lat="43.62287" lon="6.49766">
        <ele>720.4</ele>
      </trkpt>
      <trkpt lat="43.62321" lon="6.4971">
        <ele>724.2</ele>
      </trkpt>
      <trkpt lat="43.62335" lon="6.49646">
        <ele>728.3</ele>
      </trkpt>
      <trkpt lat="43.62324" lon="6.49607">
        <ele>729.1</ele>
      </trkpt>
      <trkpt lat="43.62344" lon="6.49547">
        <ele>723.9</ele>
      </trkpt>
      <trkpt lat="43.62352" lon="6.49485">
        <ele>714.1</ele>
      </trkpt>
      <trkpt lat="43.62361" lon="6.49427">
        <ele>708</ele>
      </trkpt>
      <trkpt lat="43.62367" lon="6.49401">
        <ele>708.3</ele>
      </trkpt>
      <trkpt lat="43.62391" lon="6.49363">
        <ele>708.5</ele>
      </trkpt>
      <trkpt lat="43.62403" lon="6.49316">
        <ele>708.3</ele>
      </trkpt>
      <trkpt lat="43.62397" lon="6.49296">
        <ele>709.8</ele>
      </trkpt>
      <trkpt lat="43.62369" lon="6.49228">
        <ele>712.4</ele>
      </trkpt>
      <trkpt lat="43.62318" lon="6.49183">
        <ele>712.4</ele>
      </trkpt>
      <trkpt lat="43.62248" lon="6.49142">
        <ele>707.9</ele>
      </trkpt>
      <trkpt lat="43.62243" lon="6.49131">
        <ele>707.8</ele>
      </trkpt>
      <trkpt lat="43.62232" lon="6.49105">
        <ele>706.4</ele>
      </trkpt>
      <trkpt lat="43.62237" lon="6.49032">
        <ele>704.4</ele>
      </trkpt>
      <trkpt lat="43.62246" lon="6.48994">
        <ele>703.1</ele>
      </trkpt>
      <trkpt lat="43.62246" lon="6.48968">
        <ele>700.4</ele>
      </trkpt>
      <trkpt lat="43.62231" lon="6.48923">
        <ele>694.9</ele>
      </trkpt>
      <trkpt lat="43.62229" lon="6.48912">
        <ele>693.3</ele>
      </trkpt>
      <trkpt lat="43.62324" lon="6.4882">
        <ele>673.2</ele>
      </trkpt>
      <trkpt lat="43.62296" lon="6.48803">
        <ele>673.4</ele>
      </trkpt>
      <trkpt lat="43.62252" lon="6.48801">
        <ele>673.3</ele>
      </trkpt>
      <trkpt lat="43.62179" lon="6.48777">
        <ele>671.5</ele>
      </trkpt>
      <trkpt lat="43.62128" lon="6.48747">
        <ele>668.6</ele>
      </trkpt>
      <trkpt lat="43.62105" lon="6.48738">
        <ele>668.9</ele>
      </trkpt>
      <trkpt lat="43.62095" lon="6.487">
        <ele>674.1</ele>
      </trkpt>
      <trkpt lat="43.62077" lon="6.4861">
        <ele>678.3</ele>
      </trkpt>
      <trkpt lat="43.62058" lon="6.48575">
        <ele>678.1</ele>
      </trkpt>
      <trkpt lat="43.62012" lon="6.4856">
        <ele>679.3</ele>
      </trkpt>
      <trkpt lat="43.6197" lon="6.48513">
        <ele>676.6</ele>
      </trkpt>
      <trkpt lat="43.61932" lon="6.48466">
        <ele>676.4</ele>
      </trkpt>
      <trkpt lat="43.61881" lon="6.48442">
        <ele>679.3</ele>
      </trkpt>
    </trkseg>
  </trk>
</gpx>